﻿<?xml version="1.0" encoding="UTF-8" standalone="no" ?>
<gpx xmlns="http://www.topografix.com/GPX/1/1" creator="CompeGPS" version="1.1" xmlns:xsi="http://www.w3.org/2001/XMLSchema-instance" xsi:schemaLocation="http://www.topografix.com/GPX/1/1 http://www.topografix.com/GPX/1/1/gpx.xsd http://www.garmin.com/xmlschemas/GpxExtensions/v3 http://www.garmin.com/xmlschemas/GpxExtensionsv3.xsd http://www.garmin.com/xmlschemas/TrackPointExtension/v1 http://www.garmin.com/xmlschemas/TrackPointExtensionv1.xsd" xmlns:gpxtpx="http://www.garmin.com/xmlschemas/TrackPointExtension/v1">
  <metadata>
    <link href="http://www.compegps.com">
      <text>CompeGPS TEAM, SL</text>
    </link>
    <time>2013-03-06T16:57:15Z</time>
    <bounds maxlat="42.940344" maxlon="0.598733" minlat="42.917201" minlon="0.571108"/>
  </metadata>
<wpt lat="42.939170" lon="0.571358">
  <ele>800</ele>
  <name>Parking</name>
</wpt>
<wpt lat="42.935182" lon="0.583511">
  <ele>1020</ele>
  <name>Piste forestiere</name>
</wpt>
<wpt lat="42.927504" lon="0.587558">
  <ele>1130</ele>
  <name>Ruisseau de Auet</name>
</wpt>
<wpt lat="42.924218" lon="0.598733">
  <ele>1539</ele>
  <name>Pragnot de Crabe</name>
</wpt>
<wpt lat="42.918418" lon="0.597356">
  <ele>1685</ele>
  <name>Cap de Pouy Hourmigue</name>
</wpt>
<wpt lat="42.919018" lon="0.588434">
  <ele>1510</ele>
  <name>Cab. Bordes de Pouy</name>
</wpt>
<wpt lat="42.918366" lon="0.577877">
  <ele>1240</ele>
  <name>Croisement piste</name>
</wpt>
  <trk>
    <name>Cap de Pouy Hourmigue</name>
    <trkseg>
      <trkpt lat="42.939170" lon="0.571358">
        <ele>790.4</ele>
        <time>2013-03-06T07:49:47Z</time>
        <name>Parking</name>
      </trkpt>
      <trkpt lat="42.939226" lon="0.571525">
        <ele>791.0</ele>
        <time>2013-03-06T08:04:24Z</time>
      </trkpt>
      <trkpt lat="42.939263" lon="0.571648">
        <ele>803.3</ele>
        <time>2013-03-06T08:04:34Z</time>
      </trkpt>
      <trkpt lat="42.939287" lon="0.571788">
        <ele>804.3</ele>
        <time>2013-03-06T08:04:44Z</time>
      </trkpt>
      <trkpt lat="42.939344" lon="0.571921">
        <ele>803.3</ele>
        <time>2013-03-06T08:04:53Z</time>
      </trkpt>
      <trkpt lat="42.939389" lon="0.572055">
        <ele>803.3</ele>
        <time>2013-03-06T08:05:02Z</time>
      </trkpt>
      <trkpt lat="42.939448" lon="0.572193">
        <ele>803.3</ele>
        <time>2013-03-06T08:05:14Z</time>
      </trkpt>
      <trkpt lat="42.939507" lon="0.572318">
        <ele>803.3</ele>
        <time>2013-03-06T08:05:25Z</time>
      </trkpt>
      <trkpt lat="42.939571" lon="0.572455">
        <ele>803.8</ele>
        <time>2013-03-06T08:05:36Z</time>
      </trkpt>
      <trkpt lat="42.939626" lon="0.572588">
        <ele>804.8</ele>
        <time>2013-03-06T08:05:47Z</time>
      </trkpt>
      <trkpt lat="42.939652" lon="0.572747">
        <ele>804.3</ele>
        <time>2013-03-06T08:05:58Z</time>
      </trkpt>
      <trkpt lat="42.939704" lon="0.572941">
        <ele>806.2</ele>
        <time>2013-03-06T08:06:10Z</time>
      </trkpt>
      <trkpt lat="42.939737" lon="0.573113">
        <ele>806.2</ele>
        <time>2013-03-06T08:06:23Z</time>
      </trkpt>
      <trkpt lat="42.939846" lon="0.573290">
        <ele>808.1</ele>
        <time>2013-03-06T08:06:38Z</time>
      </trkpt>
      <trkpt lat="42.939962" lon="0.573475">
        <ele>809.1</ele>
        <time>2013-03-06T08:06:52Z</time>
      </trkpt>
      <trkpt lat="42.940048" lon="0.573627">
        <ele>808.6</ele>
        <time>2013-03-06T08:07:03Z</time>
      </trkpt>
      <trkpt lat="42.940106" lon="0.573774">
        <ele>810.0</ele>
        <time>2013-03-06T08:07:15Z</time>
      </trkpt>
      <trkpt lat="42.940182" lon="0.573942">
        <ele>810.5</ele>
        <time>2013-03-06T08:07:28Z</time>
      </trkpt>
      <trkpt lat="42.940234" lon="0.574114">
        <ele>812.0</ele>
        <time>2013-03-06T08:07:41Z</time>
      </trkpt>
      <trkpt lat="42.940293" lon="0.574275">
        <ele>812.0</ele>
        <time>2013-03-06T08:07:50Z</time>
      </trkpt>
      <trkpt lat="42.940344" lon="0.574406">
        <ele>812.0</ele>
        <time>2013-03-06T08:07:58Z</time>
      </trkpt>
      <trkpt lat="42.940312" lon="0.574552">
        <ele>812.5</ele>
        <time>2013-03-06T08:08:08Z</time>
      </trkpt>
      <trkpt lat="42.940260" lon="0.574688">
        <ele>813.9</ele>
        <time>2013-03-06T08:08:18Z</time>
      </trkpt>
      <trkpt lat="42.940195" lon="0.574815">
        <ele>815.3</ele>
        <time>2013-03-06T08:08:31Z</time>
      </trkpt>
      <trkpt lat="42.940126" lon="0.575034">
        <ele>816.8</ele>
        <time>2013-03-06T08:08:44Z</time>
      </trkpt>
      <trkpt lat="42.940055" lon="0.575224">
        <ele>818.7</ele>
        <time>2013-03-06T08:08:57Z</time>
      </trkpt>
      <trkpt lat="42.939971" lon="0.575341">
        <ele>820.1</ele>
        <time>2013-03-06T08:09:08Z</time>
      </trkpt>
      <trkpt lat="42.939916" lon="0.575458">
        <ele>821.6</ele>
        <time>2013-03-06T08:09:20Z</time>
      </trkpt>
      <trkpt lat="42.939881" lon="0.575590">
        <ele>823.5</ele>
        <time>2013-03-06T08:09:30Z</time>
      </trkpt>
      <trkpt lat="42.939845" lon="0.575747">
        <ele>824.5</ele>
        <time>2013-03-06T08:09:42Z</time>
      </trkpt>
      <trkpt lat="42.939805" lon="0.575901">
        <ele>825.4</ele>
        <time>2013-03-06T08:09:53Z</time>
      </trkpt>
      <trkpt lat="42.939762" lon="0.576034">
        <ele>825.0</ele>
        <time>2013-03-06T08:10:02Z</time>
      </trkpt>
      <trkpt lat="42.939683" lon="0.576103">
        <ele>823.5</ele>
        <time>2013-03-06T08:10:12Z</time>
      </trkpt>
      <trkpt lat="42.939568" lon="0.576127">
        <ele>822.1</ele>
        <time>2013-03-06T08:10:22Z</time>
      </trkpt>
      <trkpt lat="42.939470" lon="0.576146">
        <ele>820.1</ele>
        <time>2013-03-06T08:10:31Z</time>
      </trkpt>
      <trkpt lat="42.939369" lon="0.576188">
        <ele>819.7</ele>
        <time>2013-03-06T08:10:39Z</time>
      </trkpt>
      <trkpt lat="42.939279" lon="0.576239">
        <ele>819.7</ele>
        <time>2013-03-06T08:10:48Z</time>
      </trkpt>
      <trkpt lat="42.939181" lon="0.576253">
        <ele>820.1</ele>
        <time>2013-03-06T08:11:02Z</time>
      </trkpt>
      <trkpt lat="42.939070" lon="0.576268">
        <ele>820.6</ele>
        <time>2013-03-06T08:11:11Z</time>
      </trkpt>
      <trkpt lat="42.938968" lon="0.576277">
        <ele>822.1</ele>
        <time>2013-03-06T08:11:21Z</time>
      </trkpt>
      <trkpt lat="42.938976" lon="0.576388">
        <ele>823.0</ele>
        <time>2013-03-06T08:11:34Z</time>
      </trkpt>
      <trkpt lat="42.939037" lon="0.576520">
        <ele>823.5</ele>
        <time>2013-03-06T08:11:45Z</time>
      </trkpt>
      <trkpt lat="42.939052" lon="0.576672">
        <ele>825.4</ele>
        <time>2013-03-06T08:11:57Z</time>
      </trkpt>
      <trkpt lat="42.939074" lon="0.576805">
        <ele>826.4</ele>
        <time>2013-03-06T08:12:11Z</time>
      </trkpt>
      <trkpt lat="42.939162" lon="0.576924">
        <ele>830.7</ele>
        <time>2013-03-06T08:12:31Z</time>
      </trkpt>
      <trkpt lat="42.939216" lon="0.577123">
        <ele>832.6</ele>
        <time>2013-03-06T08:12:48Z</time>
      </trkpt>
      <trkpt lat="42.939203" lon="0.577305">
        <ele>835.0</ele>
        <time>2013-03-06T08:13:02Z</time>
      </trkpt>
      <trkpt lat="42.939153" lon="0.577428">
        <ele>838.4</ele>
        <time>2013-03-06T08:13:22Z</time>
      </trkpt>
      <trkpt lat="42.939069" lon="0.577288">
        <ele>841.3</ele>
        <time>2013-03-06T08:13:39Z</time>
      </trkpt>
      <trkpt lat="42.938991" lon="0.577193">
        <ele>841.3</ele>
        <time>2013-03-06T08:13:50Z</time>
      </trkpt>
      <trkpt lat="42.938870" lon="0.577209">
        <ele>841.8</ele>
        <time>2013-03-06T08:14:02Z</time>
      </trkpt>
      <trkpt lat="42.938753" lon="0.577290">
        <ele>843.2</ele>
        <time>2013-03-06T08:14:16Z</time>
      </trkpt>
      <trkpt lat="42.938666" lon="0.577246">
        <ele>844.7</ele>
        <time>2013-03-06T08:14:29Z</time>
      </trkpt>
      <trkpt lat="42.938539" lon="0.577114">
        <ele>848.0</ele>
        <time>2013-03-06T08:14:46Z</time>
      </trkpt>
      <trkpt lat="42.938385" lon="0.577047">
        <ele>851.4</ele>
        <time>2013-03-06T08:15:05Z</time>
      </trkpt>
      <trkpt lat="42.938244" lon="0.577068">
        <ele>851.4</ele>
        <time>2013-03-06T08:15:19Z</time>
      </trkpt>
      <trkpt lat="42.938115" lon="0.577112">
        <ele>851.4</ele>
        <time>2013-03-06T08:15:32Z</time>
      </trkpt>
      <trkpt lat="42.937977" lon="0.577187">
        <ele>852.3</ele>
        <time>2013-03-06T08:15:47Z</time>
      </trkpt>
      <trkpt lat="42.937837" lon="0.577247">
        <ele>852.8</ele>
        <time>2013-03-06T08:15:59Z</time>
      </trkpt>
      <trkpt lat="42.937717" lon="0.577300">
        <ele>853.8</ele>
        <time>2013-03-06T08:16:16Z</time>
      </trkpt>
      <trkpt lat="42.937591" lon="0.577318">
        <ele>854.3</ele>
        <time>2013-03-06T08:16:29Z</time>
      </trkpt>
      <trkpt lat="42.937477" lon="0.577371">
        <ele>856.2</ele>
        <time>2013-03-06T08:16:42Z</time>
      </trkpt>
      <trkpt lat="42.937360" lon="0.577418">
        <ele>857.2</ele>
        <time>2013-03-06T08:16:55Z</time>
      </trkpt>
      <trkpt lat="42.937244" lon="0.577491">
        <ele>858.6</ele>
        <time>2013-03-06T08:17:10Z</time>
      </trkpt>
      <trkpt lat="42.937112" lon="0.577624">
        <ele>860.5</ele>
        <time>2013-03-06T08:17:29Z</time>
      </trkpt>
      <trkpt lat="42.937015" lon="0.577726">
        <ele>862.4</ele>
        <time>2013-03-06T08:17:46Z</time>
      </trkpt>
      <trkpt lat="42.936888" lon="0.577843">
        <ele>864.4</ele>
        <time>2013-03-06T08:18:02Z</time>
      </trkpt>
      <trkpt lat="42.936782" lon="0.577989">
        <ele>866.8</ele>
        <time>2013-03-06T08:18:22Z</time>
      </trkpt>
      <trkpt lat="42.936653" lon="0.578099">
        <ele>869.2</ele>
        <time>2013-03-06T08:18:46Z</time>
      </trkpt>
      <trkpt lat="42.936481" lon="0.578141">
        <ele>871.6</ele>
        <time>2013-03-06T08:19:09Z</time>
      </trkpt>
      <trkpt lat="42.936364" lon="0.578217">
        <ele>875.9</ele>
        <time>2013-03-06T08:19:34Z</time>
      </trkpt>
      <trkpt lat="42.936252" lon="0.578359">
        <ele>878.8</ele>
        <time>2013-03-06T08:19:54Z</time>
      </trkpt>
      <trkpt lat="42.936073" lon="0.578486">
        <ele>882.6</ele>
        <time>2013-03-06T08:20:17Z</time>
      </trkpt>
      <trkpt lat="42.935916" lon="0.578615">
        <ele>887.4</ele>
        <time>2013-03-06T08:21:24Z</time>
      </trkpt>
      <trkpt lat="42.935840" lon="0.578736">
        <ele>891.3</ele>
        <time>2013-03-06T08:21:49Z</time>
      </trkpt>
      <trkpt lat="42.935766" lon="0.578936">
        <ele>894.6</ele>
        <time>2013-03-06T08:22:08Z</time>
      </trkpt>
      <trkpt lat="42.935806" lon="0.579046">
        <ele>899.0</ele>
        <time>2013-03-06T08:22:27Z</time>
      </trkpt>
      <trkpt lat="42.935900" lon="0.579099">
        <ele>902.8</ele>
        <time>2013-03-06T08:22:50Z</time>
      </trkpt>
      <trkpt lat="42.936048" lon="0.579161">
        <ele>907.1</ele>
        <time>2013-03-06T08:23:13Z</time>
      </trkpt>
      <trkpt lat="42.936182" lon="0.579278">
        <ele>911.0</ele>
        <time>2013-03-06T08:23:37Z</time>
      </trkpt>
      <trkpt lat="42.936267" lon="0.579435">
        <ele>914.8</ele>
        <time>2013-03-06T08:23:59Z</time>
      </trkpt>
      <trkpt lat="42.936365" lon="0.579602">
        <ele>918.2</ele>
        <time>2013-03-06T08:24:22Z</time>
      </trkpt>
      <trkpt lat="42.936429" lon="0.579775">
        <ele>921.6</ele>
        <time>2013-03-06T08:24:46Z</time>
      </trkpt>
      <trkpt lat="42.936439" lon="0.579945">
        <ele>924.9</ele>
        <time>2013-03-06T08:25:09Z</time>
      </trkpt>
      <trkpt lat="42.936510" lon="0.580086">
        <ele>926.8</ele>
        <time>2013-03-06T08:25:26Z</time>
      </trkpt>
      <trkpt lat="42.936616" lon="0.580287">
        <ele>930.7</ele>
        <time>2013-03-06T08:25:53Z</time>
      </trkpt>
      <trkpt lat="42.936509" lon="0.580551">
        <ele>936.9</ele>
        <time>2013-03-06T08:26:55Z</time>
      </trkpt>
      <trkpt lat="42.936405" lon="0.580549">
        <ele>941.3</ele>
        <time>2013-03-06T08:27:17Z</time>
      </trkpt>
      <trkpt lat="42.936259" lon="0.580609">
        <ele>946.6</ele>
        <time>2013-03-06T08:27:44Z</time>
      </trkpt>
      <trkpt lat="42.935975" lon="0.580755">
        <ele>936.2</ele>
        <time>2013-03-06T08:29:10Z</time>
      </trkpt>
      <trkpt lat="42.935739" lon="0.581020">
        <ele>948.1</ele>
        <time>2013-03-06T08:29:40Z</time>
      </trkpt>
      <trkpt lat="42.935517" lon="0.581324">
        <ele>959.1</ele>
        <time>2013-03-06T08:30:03Z</time>
      </trkpt>
      <trkpt lat="42.935475" lon="0.581627">
        <ele>968.1</ele>
        <time>2013-03-06T08:30:26Z</time>
      </trkpt>
      <trkpt lat="42.935517" lon="0.581741">
        <ele>970.2</ele>
        <time>2013-03-06T08:30:58Z</time>
      </trkpt>
      <trkpt lat="42.935730" lon="0.581761">
        <ele>967.9</ele>
        <time>2013-03-06T08:31:18Z</time>
      </trkpt>
      <trkpt lat="42.935858" lon="0.581844">
        <ele>968.1</ele>
        <time>2013-03-06T08:31:35Z</time>
      </trkpt>
      <trkpt lat="42.935873" lon="0.581918">
        <ele>983.1</ele>
        <time>2013-03-06T08:35:27Z</time>
      </trkpt>
      <trkpt lat="42.935778" lon="0.582066">
        <ele>986.5</ele>
        <time>2013-03-06T08:35:45Z</time>
      </trkpt>
      <trkpt lat="42.935718" lon="0.582241">
        <ele>990.3</ele>
        <time>2013-03-06T08:36:06Z</time>
      </trkpt>
      <trkpt lat="42.935670" lon="0.582372">
        <ele>993.7</ele>
        <time>2013-03-06T08:36:22Z</time>
      </trkpt>
      <trkpt lat="42.935611" lon="0.582485">
        <ele>996.1</ele>
        <time>2013-03-06T08:36:39Z</time>
      </trkpt>
      <trkpt lat="42.935541" lon="0.582592">
        <ele>998.5</ele>
        <time>2013-03-06T08:36:54Z</time>
      </trkpt>
      <trkpt lat="42.935477" lon="0.582723">
        <ele>1000.9</ele>
        <time>2013-03-06T08:37:10Z</time>
      </trkpt>
      <trkpt lat="42.935391" lon="0.582821">
        <ele>1003.8</ele>
        <time>2013-03-06T08:37:28Z</time>
      </trkpt>
      <trkpt lat="42.935332" lon="0.582949">
        <ele>1006.2</ele>
        <time>2013-03-06T08:37:47Z</time>
      </trkpt>
      <trkpt lat="42.935260" lon="0.583026">
        <ele>1009.0</ele>
        <time>2013-03-06T08:38:08Z</time>
      </trkpt>
      <trkpt lat="42.935218" lon="0.583189">
        <ele>1012.4</ele>
        <time>2013-03-06T08:38:29Z</time>
      </trkpt>
      <trkpt lat="42.935205" lon="0.583375">
        <ele>1014.3</ele>
        <time>2013-03-06T08:38:46Z</time>
      </trkpt>
      <trkpt lat="42.935182" lon="0.583511">
        <ele>1015.3</ele>
        <time>2013-03-06T08:39:01Z</time>
        <name>Piste forestiere</name>
      </trkpt>
      <trkpt lat="42.935134" lon="0.583632">
        <ele>1016.7</ele>
        <time>2013-03-06T08:39:15Z</time>
      </trkpt>
      <trkpt lat="42.935057" lon="0.583746">
        <ele>1020.1</ele>
        <time>2013-03-06T08:39:47Z</time>
      </trkpt>
      <trkpt lat="42.934941" lon="0.583894">
        <ele>1023.0</ele>
        <time>2013-03-06T08:40:09Z</time>
      </trkpt>
      <trkpt lat="42.934826" lon="0.583934">
        <ele>1025.4</ele>
        <time>2013-03-06T08:40:33Z</time>
      </trkpt>
      <trkpt lat="42.934777" lon="0.583988">
        <ele>1028.3</ele>
        <time>2013-03-06T08:40:55Z</time>
      </trkpt>
      <trkpt lat="42.934690" lon="0.584052">
        <ele>1036.4</ele>
        <time>2013-03-06T08:41:33Z</time>
      </trkpt>
      <trkpt lat="42.934594" lon="0.584144">
        <ele>1036.9</ele>
        <time>2013-03-06T08:43:07Z</time>
      </trkpt>
      <trkpt lat="42.934439" lon="0.584222">
        <ele>1038.8</ele>
        <time>2013-03-06T08:43:26Z</time>
      </trkpt>
      <trkpt lat="42.934301" lon="0.584308">
        <ele>1040.8</ele>
        <time>2013-03-06T08:43:46Z</time>
      </trkpt>
      <trkpt lat="42.934194" lon="0.584318">
        <ele>1042.7</ele>
        <time>2013-03-06T08:44:04Z</time>
      </trkpt>
      <trkpt lat="42.934029" lon="0.584361">
        <ele>1044.6</ele>
        <time>2013-03-06T08:44:21Z</time>
      </trkpt>
      <trkpt lat="42.933951" lon="0.584471">
        <ele>1046.5</ele>
        <time>2013-03-06T08:44:37Z</time>
      </trkpt>
      <trkpt lat="42.933857" lon="0.584608">
        <ele>1047.5</ele>
        <time>2013-03-06T08:44:56Z</time>
      </trkpt>
      <trkpt lat="42.933806" lon="0.584754">
        <ele>1049.9</ele>
        <time>2013-03-06T08:45:13Z</time>
      </trkpt>
      <trkpt lat="42.933696" lon="0.584895">
        <ele>1051.8</ele>
        <time>2013-03-06T08:45:29Z</time>
      </trkpt>
      <trkpt lat="42.933561" lon="0.585017">
        <ele>1053.3</ele>
        <time>2013-03-06T08:45:47Z</time>
      </trkpt>
      <trkpt lat="42.933425" lon="0.585120">
        <ele>1055.7</ele>
        <time>2013-03-06T08:46:04Z</time>
      </trkpt>
      <trkpt lat="42.933299" lon="0.585225">
        <ele>1057.1</ele>
        <time>2013-03-06T08:46:22Z</time>
      </trkpt>
      <trkpt lat="42.933230" lon="0.585343">
        <ele>1058.1</ele>
        <time>2013-03-06T08:46:34Z</time>
      </trkpt>
      <trkpt lat="42.933180" lon="0.585483">
        <ele>1060.0</ele>
        <time>2013-03-06T08:46:47Z</time>
      </trkpt>
      <trkpt lat="42.933200" lon="0.585634">
        <ele>1060.9</ele>
        <time>2013-03-06T08:47:02Z</time>
      </trkpt>
      <trkpt lat="42.933231" lon="0.585764">
        <ele>1061.9</ele>
        <time>2013-03-06T08:47:14Z</time>
      </trkpt>
      <trkpt lat="42.933267" lon="0.585912">
        <ele>1063.4</ele>
        <time>2013-03-06T08:47:27Z</time>
      </trkpt>
      <trkpt lat="42.933295" lon="0.586057">
        <ele>1064.8</ele>
        <time>2013-03-06T08:47:39Z</time>
      </trkpt>
      <trkpt lat="42.933262" lon="0.586191">
        <ele>1066.2</ele>
        <time>2013-03-06T08:47:50Z</time>
      </trkpt>
      <trkpt lat="42.933226" lon="0.586311">
        <ele>1066.2</ele>
        <time>2013-03-06T08:48:01Z</time>
      </trkpt>
      <trkpt lat="42.933190" lon="0.586463">
        <ele>1066.7</ele>
        <time>2013-03-06T08:48:13Z</time>
      </trkpt>
      <trkpt lat="42.933158" lon="0.586600">
        <ele>1066.2</ele>
        <time>2013-03-06T08:48:25Z</time>
      </trkpt>
      <trkpt lat="42.933103" lon="0.586745">
        <ele>1065.8</ele>
        <time>2013-03-06T08:48:36Z</time>
      </trkpt>
      <trkpt lat="42.933000" lon="0.586862">
        <ele>1066.7</ele>
        <time>2013-03-06T08:48:47Z</time>
      </trkpt>
      <trkpt lat="42.932920" lon="0.586963">
        <ele>1067.2</ele>
        <time>2013-03-06T08:48:59Z</time>
      </trkpt>
      <trkpt lat="42.932863" lon="0.587227">
        <ele>1068.2</ele>
        <time>2013-03-06T08:49:13Z</time>
      </trkpt>
      <trkpt lat="42.932759" lon="0.587297">
        <ele>1069.1</ele>
        <time>2013-03-06T08:49:25Z</time>
      </trkpt>
      <trkpt lat="42.932716" lon="0.587388">
        <ele>1070.1</ele>
        <time>2013-03-06T08:49:38Z</time>
      </trkpt>
      <trkpt lat="42.932615" lon="0.587443">
        <ele>1070.6</ele>
        <time>2013-03-06T08:49:52Z</time>
      </trkpt>
      <trkpt lat="42.932496" lon="0.587467">
        <ele>1071.5</ele>
        <time>2013-03-06T08:50:05Z</time>
      </trkpt>
      <trkpt lat="42.932388" lon="0.587505">
        <ele>1072.5</ele>
        <time>2013-03-06T08:50:17Z</time>
      </trkpt>
      <trkpt lat="42.932274" lon="0.587521">
        <ele>1073.0</ele>
        <time>2013-03-06T08:50:28Z</time>
      </trkpt>
      <trkpt lat="42.932163" lon="0.587555">
        <ele>1073.9</ele>
        <time>2013-03-06T08:50:40Z</time>
      </trkpt>
      <trkpt lat="42.932051" lon="0.587637">
        <ele>1074.4</ele>
        <time>2013-03-06T08:50:52Z</time>
      </trkpt>
      <trkpt lat="42.931946" lon="0.587678">
        <ele>1075.4</ele>
        <time>2013-03-06T08:51:03Z</time>
      </trkpt>
      <trkpt lat="42.931842" lon="0.587774">
        <ele>1076.3</ele>
        <time>2013-03-06T08:51:20Z</time>
      </trkpt>
      <trkpt lat="42.931693" lon="0.587912">
        <ele>1077.8</ele>
        <time>2013-03-06T08:51:34Z</time>
      </trkpt>
      <trkpt lat="42.931609" lon="0.587983">
        <ele>1078.7</ele>
        <time>2013-03-06T08:51:52Z</time>
      </trkpt>
      <trkpt lat="42.931498" lon="0.588072">
        <ele>1080.2</ele>
        <time>2013-03-06T08:52:06Z</time>
      </trkpt>
      <trkpt lat="42.931334" lon="0.588061">
        <ele>1081.6</ele>
        <time>2013-03-06T08:52:22Z</time>
      </trkpt>
      <trkpt lat="42.931264" lon="0.587945">
        <ele>1083.1</ele>
        <time>2013-03-06T08:52:39Z</time>
      </trkpt>
      <trkpt lat="42.931202" lon="0.587824">
        <ele>1085.0</ele>
        <time>2013-03-06T08:52:53Z</time>
      </trkpt>
      <trkpt lat="42.931114" lon="0.587737">
        <ele>1086.4</ele>
        <time>2013-03-06T08:53:16Z</time>
      </trkpt>
      <trkpt lat="42.931035" lon="0.587583">
        <ele>1087.4</ele>
        <time>2013-03-06T08:53:34Z</time>
      </trkpt>
      <trkpt lat="42.930934" lon="0.587430">
        <ele>1089.3</ele>
        <time>2013-03-06T08:53:50Z</time>
      </trkpt>
      <trkpt lat="42.930848" lon="0.587277">
        <ele>1090.3</ele>
        <time>2013-03-06T08:54:11Z</time>
      </trkpt>
      <trkpt lat="42.930784" lon="0.587123">
        <ele>1091.7</ele>
        <time>2013-03-06T08:54:25Z</time>
      </trkpt>
      <trkpt lat="42.930702" lon="0.586975">
        <ele>1093.2</ele>
        <time>2013-03-06T08:54:41Z</time>
      </trkpt>
      <trkpt lat="42.930605" lon="0.586857">
        <ele>1095.1</ele>
        <time>2013-03-06T08:54:53Z</time>
      </trkpt>
      <trkpt lat="42.930477" lon="0.586790">
        <ele>1096.0</ele>
        <time>2013-03-06T08:55:05Z</time>
      </trkpt>
      <trkpt lat="42.930350" lon="0.586749">
        <ele>1098.0</ele>
        <time>2013-03-06T08:55:17Z</time>
      </trkpt>
      <trkpt lat="42.930236" lon="0.586701">
        <ele>1098.9</ele>
        <time>2013-03-06T08:55:30Z</time>
      </trkpt>
      <trkpt lat="42.930076" lon="0.586723">
        <ele>1101.3</ele>
        <time>2013-03-06T08:55:47Z</time>
      </trkpt>
      <trkpt lat="42.929943" lon="0.586699">
        <ele>1102.3</ele>
        <time>2013-03-06T08:56:01Z</time>
      </trkpt>
      <trkpt lat="42.929842" lon="0.586650">
        <ele>1103.2</ele>
        <time>2013-03-06T08:56:12Z</time>
      </trkpt>
      <trkpt lat="42.929709" lon="0.586617">
        <ele>1104.2</ele>
        <time>2013-03-06T08:56:24Z</time>
      </trkpt>
      <trkpt lat="42.929577" lon="0.586539">
        <ele>1106.6</ele>
        <time>2013-03-06T08:56:35Z</time>
      </trkpt>
      <trkpt lat="42.929495" lon="0.586491">
        <ele>1107.6</ele>
        <time>2013-03-06T08:56:47Z</time>
      </trkpt>
      <trkpt lat="42.929403" lon="0.586440">
        <ele>1109.0</ele>
        <time>2013-03-06T08:56:59Z</time>
      </trkpt>
      <trkpt lat="42.929313" lon="0.586359">
        <ele>1110.9</ele>
        <time>2013-03-06T08:57:14Z</time>
      </trkpt>
      <trkpt lat="42.929200" lon="0.586367">
        <ele>1112.9</ele>
        <time>2013-03-06T08:57:27Z</time>
      </trkpt>
      <trkpt lat="42.929085" lon="0.586434">
        <ele>1114.8</ele>
        <time>2013-03-06T08:57:41Z</time>
      </trkpt>
      <trkpt lat="42.928968" lon="0.586463">
        <ele>1116.2</ele>
        <time>2013-03-06T08:57:54Z</time>
      </trkpt>
      <trkpt lat="42.928844" lon="0.586506">
        <ele>1118.2</ele>
        <time>2013-03-06T08:58:07Z</time>
      </trkpt>
      <trkpt lat="42.928736" lon="0.586621">
        <ele>1120.6</ele>
        <time>2013-03-06T08:58:20Z</time>
      </trkpt>
      <trkpt lat="42.928651" lon="0.586755">
        <ele>1122.0</ele>
        <time>2013-03-06T08:58:36Z</time>
      </trkpt>
      <trkpt lat="42.928586" lon="0.586894">
        <ele>1123.9</ele>
        <time>2013-03-06T08:58:48Z</time>
      </trkpt>
      <trkpt lat="42.928513" lon="0.586980">
        <ele>1125.8</ele>
        <time>2013-03-06T08:59:01Z</time>
      </trkpt>
      <trkpt lat="42.928415" lon="0.587083">
        <ele>1126.8</ele>
        <time>2013-03-06T08:59:16Z</time>
      </trkpt>
      <trkpt lat="42.928281" lon="0.587161">
        <ele>1128.2</ele>
        <time>2013-03-06T08:59:30Z</time>
      </trkpt>
      <trkpt lat="42.928153" lon="0.587271">
        <ele>1129.7</ele>
        <time>2013-03-06T08:59:45Z</time>
      </trkpt>
      <trkpt lat="42.928036" lon="0.587302">
        <ele>1130.7</ele>
        <time>2013-03-06T08:59:56Z</time>
      </trkpt>
      <trkpt lat="42.927930" lon="0.587391">
        <ele>1131.6</ele>
        <time>2013-03-06T09:00:11Z</time>
      </trkpt>
      <trkpt lat="42.927826" lon="0.587508">
        <ele>1134.0</ele>
        <time>2013-03-06T09:00:29Z</time>
      </trkpt>
      <trkpt lat="42.927715" lon="0.587574">
        <ele>1135.0</ele>
        <time>2013-03-06T09:00:46Z</time>
      </trkpt>
      <trkpt lat="42.927607" lon="0.587577">
        <ele>1136.9</ele>
        <time>2013-03-06T09:01:06Z</time>
      </trkpt>
      <trkpt lat="42.927504" lon="0.587558">
        <ele>1138.3</ele>
        <time>2013-03-06T09:01:21Z</time>
        <name>Ruisseau de Auet</name>
      </trkpt>
      <trkpt lat="42.927452" lon="0.587573">
        <ele>1145.6</ele>
        <time>2013-03-06T09:09:28Z</time>
      </trkpt>
      <trkpt lat="42.927420" lon="0.587755">
        <ele>1148.4</ele>
        <time>2013-03-06T09:09:52Z</time>
      </trkpt>
      <trkpt lat="42.927367" lon="0.587865">
        <ele>1150.8</ele>
        <time>2013-03-06T09:10:14Z</time>
      </trkpt>
      <trkpt lat="42.927364" lon="0.587986">
        <ele>1155.2</ele>
        <time>2013-03-06T09:10:44Z</time>
      </trkpt>
      <trkpt lat="42.927335" lon="0.588149">
        <ele>1162.4</ele>
        <time>2013-03-06T09:11:49Z</time>
      </trkpt>
      <trkpt lat="42.927213" lon="0.588288">
        <ele>1168.1</ele>
        <time>2013-03-06T09:12:49Z</time>
      </trkpt>
      <trkpt lat="42.927231" lon="0.588394">
        <ele>1172.0</ele>
        <time>2013-03-06T09:13:07Z</time>
      </trkpt>
      <trkpt lat="42.927274" lon="0.588541">
        <ele>1174.9</ele>
        <time>2013-03-06T09:13:36Z</time>
      </trkpt>
      <trkpt lat="42.927231" lon="0.588683">
        <ele>1180.2</ele>
        <time>2013-03-06T09:14:10Z</time>
      </trkpt>
      <trkpt lat="42.927187" lon="0.588838">
        <ele>1184.0</ele>
        <time>2013-03-06T09:14:38Z</time>
      </trkpt>
      <trkpt lat="42.927185" lon="0.589003">
        <ele>1190.2</ele>
        <time>2013-03-06T09:15:18Z</time>
      </trkpt>
      <trkpt lat="42.927117" lon="0.589150">
        <ele>1197.0</ele>
        <time>2013-03-06T09:16:21Z</time>
      </trkpt>
      <trkpt lat="42.927046" lon="0.589327">
        <ele>1204.7</ele>
        <time>2013-03-06T09:16:58Z</time>
      </trkpt>
      <trkpt lat="42.927075" lon="0.589509">
        <ele>1207.1</ele>
        <time>2013-03-06T09:17:31Z</time>
      </trkpt>
      <trkpt lat="42.927156" lon="0.589668">
        <ele>1211.4</ele>
        <time>2013-03-06T09:18:00Z</time>
      </trkpt>
      <trkpt lat="42.927107" lon="0.589776">
        <ele>1216.2</ele>
        <time>2013-03-06T09:18:28Z</time>
      </trkpt>
      <trkpt lat="42.927100" lon="0.589856">
        <ele>1219.1</ele>
        <time>2013-03-06T09:18:58Z</time>
      </trkpt>
      <trkpt lat="42.927004" lon="0.589990">
        <ele>1224.4</ele>
        <time>2013-03-06T09:19:32Z</time>
      </trkpt>
      <trkpt lat="42.926978" lon="0.590117">
        <ele>1230.1</ele>
        <time>2013-03-06T09:20:17Z</time>
      </trkpt>
      <trkpt lat="42.926982" lon="0.590268">
        <ele>1236.4</ele>
        <time>2013-03-06T09:20:50Z</time>
      </trkpt>
      <trkpt lat="42.926892" lon="0.590446">
        <ele>1242.6</ele>
        <time>2013-03-06T09:21:35Z</time>
      </trkpt>
      <trkpt lat="42.926823" lon="0.590607">
        <ele>1248.4</ele>
        <time>2013-03-06T09:22:12Z</time>
      </trkpt>
      <trkpt lat="42.926767" lon="0.590751">
        <ele>1253.7</ele>
        <time>2013-03-06T09:22:47Z</time>
      </trkpt>
      <trkpt lat="42.926644" lon="0.591025">
        <ele>1264.3</ele>
        <time>2013-03-06T09:23:54Z</time>
      </trkpt>
      <trkpt lat="42.926607" lon="0.591217">
        <ele>1270.5</ele>
        <time>2013-03-06T09:24:36Z</time>
      </trkpt>
      <trkpt lat="42.926669" lon="0.591325">
        <ele>1272.9</ele>
        <time>2013-03-06T09:25:25Z</time>
      </trkpt>
      <trkpt lat="42.926601" lon="0.591421">
        <ele>1276.8</ele>
        <time>2013-03-06T09:25:52Z</time>
      </trkpt>
      <trkpt lat="42.926565" lon="0.591573">
        <ele>1280.6</ele>
        <time>2013-03-06T09:26:18Z</time>
      </trkpt>
      <trkpt lat="42.926557" lon="0.591723">
        <ele>1285.4</ele>
        <time>2013-03-06T09:26:47Z</time>
      </trkpt>
      <trkpt lat="42.926549" lon="0.591848">
        <ele>1290.2</ele>
        <time>2013-03-06T09:27:16Z</time>
      </trkpt>
      <trkpt lat="42.926467" lon="0.591996">
        <ele>1295.5</ele>
        <time>2013-03-06T09:28:01Z</time>
      </trkpt>
      <trkpt lat="42.926413" lon="0.592093">
        <ele>1300.3</ele>
        <time>2013-03-06T09:29:24Z</time>
      </trkpt>
      <trkpt lat="42.926414" lon="0.592348">
        <ele>1308.5</ele>
        <time>2013-03-06T09:30:14Z</time>
      </trkpt>
      <trkpt lat="42.926322" lon="0.592570">
        <ele>1314.3</ele>
        <time>2013-03-06T09:30:58Z</time>
      </trkpt>
      <trkpt lat="42.926216" lon="0.592619">
        <ele>1317.6</ele>
        <time>2013-03-06T09:31:29Z</time>
      </trkpt>
      <trkpt lat="42.926173" lon="0.592764">
        <ele>1326.8</ele>
        <time>2013-03-06T09:32:29Z</time>
      </trkpt>
      <trkpt lat="42.926121" lon="0.593196">
        <ele>1337.3</ele>
        <time>2013-03-06T09:33:43Z</time>
      </trkpt>
      <trkpt lat="42.926043" lon="0.593395">
        <ele>1343.6</ele>
        <time>2013-03-06T09:34:32Z</time>
      </trkpt>
      <trkpt lat="42.925966" lon="0.593451">
        <ele>1349.8</ele>
        <time>2013-03-06T09:35:22Z</time>
      </trkpt>
      <trkpt lat="42.925871" lon="0.593478">
        <ele>1353.7</ele>
        <time>2013-03-06T09:35:52Z</time>
      </trkpt>
      <trkpt lat="42.925848" lon="0.593601">
        <ele>1359.0</ele>
        <time>2013-03-06T09:36:28Z</time>
      </trkpt>
      <trkpt lat="42.925782" lon="0.593658">
        <ele>1363.3</ele>
        <time>2013-03-06T09:36:56Z</time>
      </trkpt>
      <trkpt lat="42.925708" lon="0.593794">
        <ele>1369.5</ele>
        <time>2013-03-06T09:37:37Z</time>
      </trkpt>
      <trkpt lat="42.925698" lon="0.593957">
        <ele>1374.8</ele>
        <time>2013-03-06T09:38:21Z</time>
      </trkpt>
      <trkpt lat="42.925725" lon="0.594097">
        <ele>1379.6</ele>
        <time>2013-03-06T09:38:58Z</time>
      </trkpt>
      <trkpt lat="42.925695" lon="0.594181">
        <ele>1382.5</ele>
        <time>2013-03-06T09:40:13Z</time>
      </trkpt>
      <trkpt lat="42.925677" lon="0.594282">
        <ele>1386.4</ele>
        <time>2013-03-06T09:40:34Z</time>
      </trkpt>
      <trkpt lat="42.925628" lon="0.594392">
        <ele>1390.7</ele>
        <time>2013-03-06T09:40:59Z</time>
      </trkpt>
      <trkpt lat="42.925599" lon="0.594499">
        <ele>1393.6</ele>
        <time>2013-03-06T09:41:36Z</time>
      </trkpt>
      <trkpt lat="42.925617" lon="0.594654">
        <ele>1397.9</ele>
        <time>2013-03-06T09:42:06Z</time>
      </trkpt>
      <trkpt lat="42.925624" lon="0.594781">
        <ele>1402.7</ele>
        <time>2013-03-06T09:42:34Z</time>
      </trkpt>
      <trkpt lat="42.925527" lon="0.594896">
        <ele>1406.1</ele>
        <time>2013-03-06T09:42:57Z</time>
      </trkpt>
      <trkpt lat="42.925412" lon="0.594954">
        <ele>1410.9</ele>
        <time>2013-03-06T09:43:25Z</time>
      </trkpt>
      <trkpt lat="42.925331" lon="0.594955">
        <ele>1414.7</ele>
        <time>2013-03-06T09:44:10Z</time>
      </trkpt>
      <trkpt lat="42.925327" lon="0.595026">
        <ele>1420.0</ele>
        <time>2013-03-06T09:44:44Z</time>
      </trkpt>
      <trkpt lat="42.925315" lon="0.595131">
        <ele>1423.4</ele>
        <time>2013-03-06T09:45:12Z</time>
      </trkpt>
      <trkpt lat="42.925177" lon="0.595220">
        <ele>1429.6</ele>
        <time>2013-03-06T09:45:45Z</time>
      </trkpt>
      <trkpt lat="42.925206" lon="0.595410">
        <ele>1434.4</ele>
        <time>2013-03-06T09:46:18Z</time>
      </trkpt>
      <trkpt lat="42.925216" lon="0.595578">
        <ele>1439.7</ele>
        <time>2013-03-06T09:46:58Z</time>
      </trkpt>
      <trkpt lat="42.925043" lon="0.595573">
        <ele>1443.6</ele>
        <time>2013-03-06T09:47:22Z</time>
      </trkpt>
      <trkpt lat="42.925066" lon="0.595655">
        <ele>1448.8</ele>
        <time>2013-03-06T09:50:54Z</time>
      </trkpt>
      <trkpt lat="42.925151" lon="0.595810">
        <ele>1452.2</ele>
        <time>2013-03-06T09:51:22Z</time>
      </trkpt>
      <trkpt lat="42.925182" lon="0.595979">
        <ele>1455.6</ele>
        <time>2013-03-06T09:51:43Z</time>
      </trkpt>
      <trkpt lat="42.925192" lon="0.596136">
        <ele>1461.3</ele>
        <time>2013-03-06T09:52:12Z</time>
      </trkpt>
      <trkpt lat="42.925118" lon="0.596301">
        <ele>1467.1</ele>
        <time>2013-03-06T09:52:45Z</time>
      </trkpt>
      <trkpt lat="42.925053" lon="0.596487">
        <ele>1474.3</ele>
        <time>2013-03-06T09:53:23Z</time>
      </trkpt>
      <trkpt lat="42.924931" lon="0.596663">
        <ele>1482.0</ele>
        <time>2013-03-06T09:54:02Z</time>
      </trkpt>
      <trkpt lat="42.924926" lon="0.596857">
        <ele>1486.3</ele>
        <time>2013-03-06T09:54:48Z</time>
      </trkpt>
      <trkpt lat="42.924898" lon="0.596893">
        <ele>1490.2</ele>
        <time>2013-03-06T09:55:30Z</time>
      </trkpt>
      <trkpt lat="42.924870" lon="0.597082">
        <ele>1495.0</ele>
        <time>2013-03-06T09:56:00Z</time>
      </trkpt>
      <trkpt lat="42.924816" lon="0.597267">
        <ele>1502.7</ele>
        <time>2013-03-06T09:57:14Z</time>
      </trkpt>
      <trkpt lat="42.924807" lon="0.597467">
        <ele>1508.0</ele>
        <time>2013-03-06T09:57:43Z</time>
      </trkpt>
      <trkpt lat="42.924704" lon="0.597538">
        <ele>1510.8</ele>
        <time>2013-03-06T09:58:04Z</time>
      </trkpt>
      <trkpt lat="42.924736" lon="0.597681">
        <ele>1516.1</ele>
        <time>2013-03-06T09:58:35Z</time>
      </trkpt>
      <trkpt lat="42.924661" lon="0.597774">
        <ele>1518.5</ele>
        <time>2013-03-06T09:58:58Z</time>
      </trkpt>
      <trkpt lat="42.924590" lon="0.597864">
        <ele>1521.4</ele>
        <time>2013-03-06T09:59:21Z</time>
      </trkpt>
      <trkpt lat="42.924578" lon="0.597963">
        <ele>1524.8</ele>
        <time>2013-03-06T09:59:41Z</time>
      </trkpt>
      <trkpt lat="42.924524" lon="0.598056">
        <ele>1527.7</ele>
        <time>2013-03-06T10:00:01Z</time>
      </trkpt>
      <trkpt lat="42.924481" lon="0.598138">
        <ele>1530.1</ele>
        <time>2013-03-06T10:00:16Z</time>
      </trkpt>
      <trkpt lat="42.924429" lon="0.598229">
        <ele>1532.5</ele>
        <time>2013-03-06T10:00:33Z</time>
      </trkpt>
      <trkpt lat="42.924351" lon="0.598296">
        <ele>1534.4</ele>
        <time>2013-03-06T10:00:53Z</time>
      </trkpt>
      <trkpt lat="42.924300" lon="0.598380">
        <ele>1536.8</ele>
        <time>2013-03-06T10:01:14Z</time>
      </trkpt>
      <trkpt lat="42.924259" lon="0.598487">
        <ele>1539.2</ele>
        <time>2013-03-06T10:01:33Z</time>
      </trkpt>
      <trkpt lat="42.924258" lon="0.598492">
        <ele>1539.7</ele>
        <time>2013-03-06T10:02:47Z</time>
      </trkpt>
      <trkpt lat="42.924263" lon="0.598572">
        <ele>1539.7</ele>
        <time>2013-03-06T10:03:37Z</time>
      </trkpt>
      <trkpt lat="42.924243" lon="0.598693">
        <ele>1540.2</ele>
        <time>2013-03-06T10:04:03Z</time>
      </trkpt>
      <trkpt lat="42.924218" lon="0.598733">
        <ele>1539.2</ele>
        <time>2013-03-06T10:13:22Z</time>
        <name>Pragnot de Crabe</name>
      </trkpt>
      <trkpt lat="42.924162" lon="0.598694">
        <ele>1529.1</ele>
        <time>2013-03-06T10:13:54Z</time>
      </trkpt>
      <trkpt lat="42.924113" lon="0.598636">
        <ele>1541.1</ele>
        <time>2013-03-06T10:14:13Z</time>
      </trkpt>
      <trkpt lat="42.924033" lon="0.598600">
        <ele>1543.1</ele>
        <time>2013-03-06T10:14:29Z</time>
      </trkpt>
      <trkpt lat="42.923948" lon="0.598591">
        <ele>1545.9</ele>
        <time>2013-03-06T10:14:48Z</time>
      </trkpt>
      <trkpt lat="42.923856" lon="0.598576">
        <ele>1548.8</ele>
        <time>2013-03-06T10:15:06Z</time>
      </trkpt>
      <trkpt lat="42.923773" lon="0.598551">
        <ele>1550.3</ele>
        <time>2013-03-06T10:15:22Z</time>
      </trkpt>
      <trkpt lat="42.923676" lon="0.598519">
        <ele>1553.2</ele>
        <time>2013-03-06T10:15:39Z</time>
      </trkpt>
      <trkpt lat="42.923581" lon="0.598482">
        <ele>1555.1</ele>
        <time>2013-03-06T10:15:56Z</time>
      </trkpt>
      <trkpt lat="42.923489" lon="0.598463">
        <ele>1557.0</ele>
        <time>2013-03-06T10:16:10Z</time>
      </trkpt>
      <trkpt lat="42.923397" lon="0.598427">
        <ele>1558.9</ele>
        <time>2013-03-06T10:16:25Z</time>
      </trkpt>
      <trkpt lat="42.923309" lon="0.598393">
        <ele>1559.9</ele>
        <time>2013-03-06T10:16:38Z</time>
      </trkpt>
      <trkpt lat="42.923221" lon="0.598348">
        <ele>1560.8</ele>
        <time>2013-03-06T10:16:53Z</time>
      </trkpt>
      <trkpt lat="42.923132" lon="0.598276">
        <ele>1562.3</ele>
        <time>2013-03-06T10:17:06Z</time>
      </trkpt>
      <trkpt lat="42.923049" lon="0.598210">
        <ele>1561.8</ele>
        <time>2013-03-06T10:17:19Z</time>
      </trkpt>
      <trkpt lat="42.922968" lon="0.598148">
        <ele>1561.8</ele>
        <time>2013-03-06T10:17:32Z</time>
      </trkpt>
      <trkpt lat="42.922892" lon="0.598093">
        <ele>1562.3</ele>
        <time>2013-03-06T10:17:45Z</time>
      </trkpt>
      <trkpt lat="42.922805" lon="0.598052">
        <ele>1563.2</ele>
        <time>2013-03-06T10:17:58Z</time>
      </trkpt>
      <trkpt lat="42.922721" lon="0.597988">
        <ele>1563.2</ele>
        <time>2013-03-06T10:18:11Z</time>
      </trkpt>
      <trkpt lat="42.922647" lon="0.597925">
        <ele>1564.2</ele>
        <time>2013-03-06T10:18:24Z</time>
      </trkpt>
      <trkpt lat="42.922573" lon="0.597852">
        <ele>1564.7</ele>
        <time>2013-03-06T10:18:37Z</time>
      </trkpt>
      <trkpt lat="42.922495" lon="0.597793">
        <ele>1566.1</ele>
        <time>2013-03-06T10:18:51Z</time>
      </trkpt>
      <trkpt lat="42.922416" lon="0.597730">
        <ele>1567.6</ele>
        <time>2013-03-06T10:19:05Z</time>
      </trkpt>
      <trkpt lat="42.922320" lon="0.597662">
        <ele>1570.0</ele>
        <time>2013-03-06T10:19:23Z</time>
      </trkpt>
      <trkpt lat="42.922236" lon="0.597609">
        <ele>1571.9</ele>
        <time>2013-03-06T10:19:40Z</time>
      </trkpt>
      <trkpt lat="42.922160" lon="0.597551">
        <ele>1574.3</ele>
        <time>2013-03-06T10:19:56Z</time>
      </trkpt>
      <trkpt lat="42.922063" lon="0.597502">
        <ele>1577.2</ele>
        <time>2013-03-06T10:20:13Z</time>
      </trkpt>
      <trkpt lat="42.921976" lon="0.597482">
        <ele>1579.1</ele>
        <time>2013-03-06T10:20:27Z</time>
      </trkpt>
      <trkpt lat="42.921899" lon="0.597473">
        <ele>1582.0</ele>
        <time>2013-03-06T10:20:42Z</time>
      </trkpt>
      <trkpt lat="42.921811" lon="0.597484">
        <ele>1583.9</ele>
        <time>2013-03-06T10:20:55Z</time>
      </trkpt>
      <trkpt lat="42.921736" lon="0.597426">
        <ele>1586.8</ele>
        <time>2013-03-06T10:21:09Z</time>
      </trkpt>
      <trkpt lat="42.921665" lon="0.597331">
        <ele>1589.7</ele>
        <time>2013-03-06T10:21:23Z</time>
      </trkpt>
      <trkpt lat="42.921606" lon="0.597239">
        <ele>1593.0</ele>
        <time>2013-03-06T10:21:37Z</time>
      </trkpt>
      <trkpt lat="42.921517" lon="0.597267">
        <ele>1595.9</ele>
        <time>2013-03-06T10:21:51Z</time>
      </trkpt>
      <trkpt lat="42.921433" lon="0.597304">
        <ele>1598.3</ele>
        <time>2013-03-06T10:22:05Z</time>
      </trkpt>
      <trkpt lat="42.921352" lon="0.597324">
        <ele>1601.7</ele>
        <time>2013-03-06T10:22:18Z</time>
      </trkpt>
      <trkpt lat="42.921265" lon="0.597344">
        <ele>1605.5</ele>
        <time>2013-03-06T10:22:31Z</time>
      </trkpt>
      <trkpt lat="42.921167" lon="0.597367">
        <ele>1608.4</ele>
        <time>2013-03-06T10:22:52Z</time>
      </trkpt>
      <trkpt lat="42.921150" lon="0.597267">
        <ele>1611.8</ele>
        <time>2013-03-06T10:23:07Z</time>
      </trkpt>
      <trkpt lat="42.921117" lon="0.597167">
        <ele>1615.2</ele>
        <time>2013-03-06T10:23:21Z</time>
      </trkpt>
      <trkpt lat="42.921077" lon="0.597059">
        <ele>1618.5</ele>
        <time>2013-03-06T10:23:36Z</time>
      </trkpt>
      <trkpt lat="42.921003" lon="0.597032">
        <ele>1621.4</ele>
        <time>2013-03-06T10:23:52Z</time>
      </trkpt>
      <trkpt lat="42.920914" lon="0.597067">
        <ele>1624.3</ele>
        <time>2013-03-06T10:24:08Z</time>
      </trkpt>
      <trkpt lat="42.920825" lon="0.597082">
        <ele>1627.7</ele>
        <time>2013-03-06T10:24:25Z</time>
      </trkpt>
      <trkpt lat="42.920739" lon="0.597072">
        <ele>1632.0</ele>
        <time>2013-03-06T10:24:43Z</time>
      </trkpt>
      <trkpt lat="42.920643" lon="0.597081">
        <ele>1635.8</ele>
        <time>2013-03-06T10:25:04Z</time>
      </trkpt>
      <trkpt lat="42.920593" lon="0.596993">
        <ele>1640.2</ele>
        <time>2013-03-06T10:25:23Z</time>
      </trkpt>
      <trkpt lat="42.920592" lon="0.596871">
        <ele>1642.1</ele>
        <time>2013-03-06T10:25:46Z</time>
      </trkpt>
      <trkpt lat="42.920569" lon="0.596778">
        <ele>1644.9</ele>
        <time>2013-03-06T10:26:01Z</time>
      </trkpt>
      <trkpt lat="42.920477" lon="0.596803">
        <ele>1649.3</ele>
        <time>2013-03-06T10:26:19Z</time>
      </trkpt>
      <trkpt lat="42.920393" lon="0.596788">
        <ele>1652.6</ele>
        <time>2013-03-06T10:26:54Z</time>
      </trkpt>
      <trkpt lat="42.920336" lon="0.596739">
        <ele>1656.5</ele>
        <time>2013-03-06T10:27:11Z</time>
      </trkpt>
      <trkpt lat="42.920246" lon="0.596720">
        <ele>1660.3</ele>
        <time>2013-03-06T10:27:29Z</time>
      </trkpt>
      <trkpt lat="42.920241" lon="0.596665">
        <ele>1659.4</ele>
        <time>2013-03-06T10:30:26Z</time>
      </trkpt>
      <trkpt lat="42.920191" lon="0.596698">
        <ele>1660.8</ele>
        <time>2013-03-06T10:32:51Z</time>
      </trkpt>
      <trkpt lat="42.920104" lon="0.596625">
        <ele>1662.3</ele>
        <time>2013-03-06T10:33:03Z</time>
      </trkpt>
      <trkpt lat="42.920015" lon="0.596584">
        <ele>1663.7</ele>
        <time>2013-03-06T10:33:15Z</time>
      </trkpt>
      <trkpt lat="42.919930" lon="0.596586">
        <ele>1665.6</ele>
        <time>2013-03-06T10:33:30Z</time>
      </trkpt>
      <trkpt lat="42.919848" lon="0.596630">
        <ele>1667.1</ele>
        <time>2013-03-06T10:33:42Z</time>
      </trkpt>
      <trkpt lat="42.919759" lon="0.596619">
        <ele>1669.9</ele>
        <time>2013-03-06T10:33:57Z</time>
      </trkpt>
      <trkpt lat="42.919670" lon="0.596635">
        <ele>1670.9</ele>
        <time>2013-03-06T10:34:09Z</time>
      </trkpt>
      <trkpt lat="42.919592" lon="0.596657">
        <ele>1671.9</ele>
        <time>2013-03-06T10:34:27Z</time>
      </trkpt>
      <trkpt lat="42.919505" lon="0.596708">
        <ele>1673.8</ele>
        <time>2013-03-06T10:34:40Z</time>
      </trkpt>
      <trkpt lat="42.919417" lon="0.596772">
        <ele>1673.8</ele>
        <time>2013-03-06T10:34:51Z</time>
      </trkpt>
      <trkpt lat="42.919332" lon="0.596828">
        <ele>1674.8</ele>
        <time>2013-03-06T10:35:02Z</time>
      </trkpt>
      <trkpt lat="42.919247" lon="0.596876">
        <ele>1674.8</ele>
        <time>2013-03-06T10:35:12Z</time>
      </trkpt>
      <trkpt lat="42.919170" lon="0.596950">
        <ele>1675.7</ele>
        <time>2013-03-06T10:35:23Z</time>
      </trkpt>
      <trkpt lat="42.919103" lon="0.597036">
        <ele>1676.2</ele>
        <time>2013-03-06T10:35:34Z</time>
      </trkpt>
      <trkpt lat="42.919021" lon="0.597063">
        <ele>1677.2</ele>
        <time>2013-03-06T10:35:45Z</time>
      </trkpt>
      <trkpt lat="42.918927" lon="0.597099">
        <ele>1678.1</ele>
        <time>2013-03-06T10:35:56Z</time>
      </trkpt>
      <trkpt lat="42.918853" lon="0.597161">
        <ele>1678.6</ele>
        <time>2013-03-06T10:36:07Z</time>
      </trkpt>
      <trkpt lat="42.918782" lon="0.597229">
        <ele>1678.6</ele>
        <time>2013-03-06T10:36:17Z</time>
      </trkpt>
      <trkpt lat="42.918685" lon="0.597280">
        <ele>1678.6</ele>
        <time>2013-03-06T10:36:28Z</time>
      </trkpt>
      <trkpt lat="42.918598" lon="0.597327">
        <ele>1678.6</ele>
        <time>2013-03-06T10:36:39Z</time>
      </trkpt>
      <trkpt lat="42.918508" lon="0.597354">
        <ele>1679.6</ele>
        <time>2013-03-06T10:36:50Z</time>
      </trkpt>
      <trkpt lat="42.918418" lon="0.597356">
        <ele>1680.0</ele>
        <time>2013-03-06T10:37:00Z</time>
        <name>Cap de Pouy Hourmigue</name>
      </trkpt>
      <trkpt lat="42.918419" lon="0.597307">
        <ele>1679.1</ele>
        <time>2013-03-06T10:39:28Z</time>
      </trkpt>
      <trkpt lat="42.918448" lon="0.597223">
        <ele>1680.5</ele>
        <time>2013-03-06T10:43:15Z</time>
      </trkpt>
      <trkpt lat="42.918457" lon="0.597181">
        <ele>1679.6</ele>
        <time>2013-03-06T10:47:08Z</time>
      </trkpt>
      <trkpt lat="42.918555" lon="0.597144">
        <ele>1678.6</ele>
        <time>2013-03-06T10:47:27Z</time>
      </trkpt>
      <trkpt lat="42.918606" lon="0.597044">
        <ele>1677.6</ele>
        <time>2013-03-06T10:47:39Z</time>
      </trkpt>
      <trkpt lat="42.918657" lon="0.596925">
        <ele>1675.7</ele>
        <time>2013-03-06T10:47:51Z</time>
      </trkpt>
      <trkpt lat="42.918725" lon="0.596824">
        <ele>1674.8</ele>
        <time>2013-03-06T10:48:02Z</time>
      </trkpt>
      <trkpt lat="42.918786" lon="0.596719">
        <ele>1673.8</ele>
        <time>2013-03-06T10:48:12Z</time>
      </trkpt>
      <trkpt lat="42.918852" lon="0.596634">
        <ele>1672.3</ele>
        <time>2013-03-06T10:48:22Z</time>
      </trkpt>
      <trkpt lat="42.918911" lon="0.596522">
        <ele>1671.9</ele>
        <time>2013-03-06T10:48:34Z</time>
      </trkpt>
      <trkpt lat="42.918981" lon="0.596445">
        <ele>1670.4</ele>
        <time>2013-03-06T10:48:55Z</time>
      </trkpt>
      <trkpt lat="42.919038" lon="0.596359">
        <ele>1669.5</ele>
        <time>2013-03-06T10:49:05Z</time>
      </trkpt>
      <trkpt lat="42.919107" lon="0.596271">
        <ele>1668.5</ele>
        <time>2013-03-06T10:49:15Z</time>
      </trkpt>
      <trkpt lat="42.919167" lon="0.596166">
        <ele>1668.0</ele>
        <time>2013-03-06T10:49:25Z</time>
      </trkpt>
      <trkpt lat="42.919222" lon="0.596060">
        <ele>1666.1</ele>
        <time>2013-03-06T10:49:35Z</time>
      </trkpt>
      <trkpt lat="42.919259" lon="0.595938">
        <ele>1664.7</ele>
        <time>2013-03-06T10:49:45Z</time>
      </trkpt>
      <trkpt lat="42.919272" lon="0.595817">
        <ele>1662.3</ele>
        <time>2013-03-06T10:49:55Z</time>
      </trkpt>
      <trkpt lat="42.919328" lon="0.595759">
        <ele>1660.8</ele>
        <time>2013-03-06T10:50:38Z</time>
      </trkpt>
      <trkpt lat="42.919353" lon="0.595646">
        <ele>1658.9</ele>
        <time>2013-03-06T10:50:55Z</time>
      </trkpt>
      <trkpt lat="42.919389" lon="0.595528">
        <ele>1656.5</ele>
        <time>2013-03-06T10:51:05Z</time>
      </trkpt>
      <trkpt lat="42.919429" lon="0.595411">
        <ele>1653.6</ele>
        <time>2013-03-06T10:51:15Z</time>
      </trkpt>
      <trkpt lat="42.919467" lon="0.595301">
        <ele>1651.2</ele>
        <time>2013-03-06T10:51:25Z</time>
      </trkpt>
      <trkpt lat="42.919483" lon="0.595182">
        <ele>1647.8</ele>
        <time>2013-03-06T10:51:34Z</time>
      </trkpt>
      <trkpt lat="42.919509" lon="0.595062">
        <ele>1644.5</ele>
        <time>2013-03-06T10:51:42Z</time>
      </trkpt>
      <trkpt lat="42.919553" lon="0.594954">
        <ele>1641.1</ele>
        <time>2013-03-06T10:51:52Z</time>
      </trkpt>
      <trkpt lat="42.919594" lon="0.594848">
        <ele>1637.7</ele>
        <time>2013-03-06T10:52:01Z</time>
      </trkpt>
      <trkpt lat="42.919625" lon="0.594744">
        <ele>1634.4</ele>
        <time>2013-03-06T10:52:11Z</time>
      </trkpt>
      <trkpt lat="42.919615" lon="0.594624">
        <ele>1630.5</ele>
        <time>2013-03-06T10:52:21Z</time>
      </trkpt>
      <trkpt lat="42.919628" lon="0.594493">
        <ele>1626.2</ele>
        <time>2013-03-06T10:52:31Z</time>
      </trkpt>
      <trkpt lat="42.919644" lon="0.594380">
        <ele>1622.8</ele>
        <time>2013-03-06T10:52:41Z</time>
      </trkpt>
      <trkpt lat="42.919657" lon="0.594277">
        <ele>1618.5</ele>
        <time>2013-03-06T10:52:53Z</time>
      </trkpt>
      <trkpt lat="42.919620" lon="0.594165">
        <ele>1615.2</ele>
        <time>2013-03-06T10:53:04Z</time>
      </trkpt>
      <trkpt lat="42.919603" lon="0.594034">
        <ele>1611.3</ele>
        <time>2013-03-06T10:53:12Z</time>
      </trkpt>
      <trkpt lat="42.919595" lon="0.593901">
        <ele>1607.0</ele>
        <time>2013-03-06T10:53:20Z</time>
      </trkpt>
      <trkpt lat="42.919552" lon="0.593798">
        <ele>1603.6</ele>
        <time>2013-03-06T10:53:28Z</time>
      </trkpt>
      <trkpt lat="42.919548" lon="0.593663">
        <ele>1599.3</ele>
        <time>2013-03-06T10:53:36Z</time>
      </trkpt>
      <trkpt lat="42.919533" lon="0.593542">
        <ele>1595.4</ele>
        <time>2013-03-06T10:53:51Z</time>
      </trkpt>
      <trkpt lat="42.919538" lon="0.593410">
        <ele>1592.1</ele>
        <time>2013-03-06T10:54:01Z</time>
      </trkpt>
      <trkpt lat="42.919546" lon="0.593273">
        <ele>1588.7</ele>
        <time>2013-03-06T10:54:09Z</time>
      </trkpt>
      <trkpt lat="42.919548" lon="0.593124">
        <ele>1584.4</ele>
        <time>2013-03-06T10:54:17Z</time>
      </trkpt>
      <trkpt lat="42.919553" lon="0.592998">
        <ele>1581.5</ele>
        <time>2013-03-06T10:54:24Z</time>
      </trkpt>
      <trkpt lat="42.919568" lon="0.592865">
        <ele>1578.6</ele>
        <time>2013-03-06T10:54:32Z</time>
      </trkpt>
      <trkpt lat="42.919584" lon="0.592746">
        <ele>1575.3</ele>
        <time>2013-03-06T10:54:41Z</time>
      </trkpt>
      <trkpt lat="42.919601" lon="0.592628">
        <ele>1571.9</ele>
        <time>2013-03-06T10:54:50Z</time>
      </trkpt>
      <trkpt lat="42.919596" lon="0.592502">
        <ele>1568.5</ele>
        <time>2013-03-06T10:55:01Z</time>
      </trkpt>
      <trkpt lat="42.919580" lon="0.592360">
        <ele>1567.1</ele>
        <time>2013-03-06T10:55:09Z</time>
      </trkpt>
      <trkpt lat="42.919585" lon="0.592239">
        <ele>1563.7</ele>
        <time>2013-03-06T10:55:17Z</time>
      </trkpt>
      <trkpt lat="42.919596" lon="0.592110">
        <ele>1560.8</ele>
        <time>2013-03-06T10:55:25Z</time>
      </trkpt>
      <trkpt lat="42.919603" lon="0.591984">
        <ele>1558.4</ele>
        <time>2013-03-06T10:55:33Z</time>
      </trkpt>
      <trkpt lat="42.919585" lon="0.591859">
        <ele>1556.0</ele>
        <time>2013-03-06T10:55:41Z</time>
      </trkpt>
      <trkpt lat="42.919571" lon="0.591717">
        <ele>1553.2</ele>
        <time>2013-03-06T10:55:49Z</time>
      </trkpt>
      <trkpt lat="42.919576" lon="0.591596">
        <ele>1551.2</ele>
        <time>2013-03-06T10:55:57Z</time>
      </trkpt>
      <trkpt lat="42.919554" lon="0.591480">
        <ele>1548.8</ele>
        <time>2013-03-06T10:56:05Z</time>
      </trkpt>
      <trkpt lat="42.919535" lon="0.591348">
        <ele>1546.4</ele>
        <time>2013-03-06T10:56:13Z</time>
      </trkpt>
      <trkpt lat="42.919521" lon="0.591214">
        <ele>1544.0</ele>
        <time>2013-03-06T10:56:21Z</time>
      </trkpt>
      <trkpt lat="42.919496" lon="0.591107">
        <ele>1542.1</ele>
        <time>2013-03-06T10:56:30Z</time>
      </trkpt>
      <trkpt lat="42.919478" lon="0.590974">
        <ele>1540.7</ele>
        <time>2013-03-06T10:56:38Z</time>
      </trkpt>
      <trkpt lat="42.919463" lon="0.590836">
        <ele>1538.7</ele>
        <time>2013-03-06T10:56:46Z</time>
      </trkpt>
      <trkpt lat="42.919447" lon="0.590710">
        <ele>1537.3</ele>
        <time>2013-03-06T10:56:54Z</time>
      </trkpt>
      <trkpt lat="42.919418" lon="0.590589">
        <ele>1536.3</ele>
        <time>2013-03-06T10:57:02Z</time>
      </trkpt>
      <trkpt lat="42.919399" lon="0.590462">
        <ele>1534.9</ele>
        <time>2013-03-06T10:57:10Z</time>
      </trkpt>
      <trkpt lat="42.919385" lon="0.590336">
        <ele>1533.9</ele>
        <time>2013-03-06T10:57:19Z</time>
      </trkpt>
      <trkpt lat="42.919365" lon="0.590197">
        <ele>1533.0</ele>
        <time>2013-03-06T10:57:28Z</time>
      </trkpt>
      <trkpt lat="42.919348" lon="0.590069">
        <ele>1530.6</ele>
        <time>2013-03-06T10:57:37Z</time>
      </trkpt>
      <trkpt lat="42.919325" lon="0.589931">
        <ele>1528.6</ele>
        <time>2013-03-06T10:57:46Z</time>
      </trkpt>
      <trkpt lat="42.919312" lon="0.589813">
        <ele>1526.7</ele>
        <time>2013-03-06T10:57:54Z</time>
      </trkpt>
      <trkpt lat="42.919300" lon="0.589689">
        <ele>1525.3</ele>
        <time>2013-03-06T10:58:02Z</time>
      </trkpt>
      <trkpt lat="42.919282" lon="0.589571">
        <ele>1523.8</ele>
        <time>2013-03-06T10:58:11Z</time>
      </trkpt>
      <trkpt lat="42.919270" lon="0.589447">
        <ele>1521.4</ele>
        <time>2013-03-06T10:58:21Z</time>
      </trkpt>
      <trkpt lat="42.919243" lon="0.589396">
        <ele>1520.0</ele>
        <time>2013-03-06T10:59:39Z</time>
      </trkpt>
      <trkpt lat="42.919213" lon="0.589267">
        <ele>1518.5</ele>
        <time>2013-03-06T10:59:50Z</time>
      </trkpt>
      <trkpt lat="42.919193" lon="0.589136">
        <ele>1516.1</ele>
        <time>2013-03-06T10:59:58Z</time>
      </trkpt>
      <trkpt lat="42.919169" lon="0.589018">
        <ele>1514.2</ele>
        <time>2013-03-06T11:00:06Z</time>
      </trkpt>
      <trkpt lat="42.919148" lon="0.588906">
        <ele>1513.2</ele>
        <time>2013-03-06T11:00:31Z</time>
      </trkpt>
      <trkpt lat="42.919105" lon="0.588786">
        <ele>1511.3</ele>
        <time>2013-03-06T11:00:40Z</time>
      </trkpt>
      <trkpt lat="42.919084" lon="0.588656">
        <ele>1509.4</ele>
        <time>2013-03-06T11:00:50Z</time>
      </trkpt>
      <trkpt lat="42.919042" lon="0.588522">
        <ele>1507.5</ele>
        <time>2013-03-06T11:01:00Z</time>
      </trkpt>
      <trkpt lat="42.919018" lon="0.588434">
        <ele>1495.1</ele>
        <time>2013-03-06T12:02:46Z</time>
        <name>Cab. Bordes de Pouy</name>
      </trkpt>
      <trkpt lat="42.919066" lon="0.588390">
        <ele>1500.8</ele>
        <time>2013-03-06T12:03:24Z</time>
      </trkpt>
      <trkpt lat="42.919149" lon="0.588304">
        <ele>1498.8</ele>
        <time>2013-03-06T12:03:37Z</time>
      </trkpt>
      <trkpt lat="42.919204" lon="0.588209">
        <ele>1504.1</ele>
        <time>2013-03-06T12:03:45Z</time>
      </trkpt>
      <trkpt lat="42.919263" lon="0.588119">
        <ele>1505.6</ele>
        <time>2013-03-06T12:03:57Z</time>
      </trkpt>
      <trkpt lat="42.919318" lon="0.588000">
        <ele>1507.5</ele>
        <time>2013-03-06T12:04:08Z</time>
      </trkpt>
      <trkpt lat="42.919385" lon="0.587877">
        <ele>1507.5</ele>
        <time>2013-03-06T12:04:18Z</time>
      </trkpt>
      <trkpt lat="42.919450" lon="0.587769">
        <ele>1507.0</ele>
        <time>2013-03-06T12:04:28Z</time>
      </trkpt>
      <trkpt lat="42.919510" lon="0.587673">
        <ele>1505.6</ele>
        <time>2013-03-06T12:04:38Z</time>
      </trkpt>
      <trkpt lat="42.919532" lon="0.587634">
        <ele>1506.0</ele>
        <time>2013-03-06T12:04:58Z</time>
      </trkpt>
      <trkpt lat="42.919544" lon="0.587601">
        <ele>1505.6</ele>
        <time>2013-03-06T12:05:58Z</time>
      </trkpt>
      <trkpt lat="42.919572" lon="0.587472">
        <ele>1505.1</ele>
        <time>2013-03-06T12:06:16Z</time>
      </trkpt>
      <trkpt lat="42.919592" lon="0.587351">
        <ele>1502.2</ele>
        <time>2013-03-06T12:06:25Z</time>
      </trkpt>
      <trkpt lat="42.919607" lon="0.587221">
        <ele>1501.7</ele>
        <time>2013-03-06T12:06:35Z</time>
      </trkpt>
      <trkpt lat="42.919627" lon="0.587088">
        <ele>1499.3</ele>
        <time>2013-03-06T12:06:45Z</time>
      </trkpt>
      <trkpt lat="42.919626" lon="0.586991">
        <ele>1495.9</ele>
        <time>2013-03-06T12:06:55Z</time>
      </trkpt>
      <trkpt lat="42.919627" lon="0.586829">
        <ele>1491.1</ele>
        <time>2013-03-06T12:07:07Z</time>
      </trkpt>
      <trkpt lat="42.919618" lon="0.586701">
        <ele>1490.2</ele>
        <time>2013-03-06T12:07:18Z</time>
      </trkpt>
      <trkpt lat="42.919605" lon="0.586595">
        <ele>1486.8</ele>
        <time>2013-03-06T12:07:38Z</time>
      </trkpt>
      <trkpt lat="42.919561" lon="0.586485">
        <ele>1483.9</ele>
        <time>2013-03-06T12:07:49Z</time>
      </trkpt>
      <trkpt lat="42.919542" lon="0.586348">
        <ele>1481.5</ele>
        <time>2013-03-06T12:08:00Z</time>
      </trkpt>
      <trkpt lat="42.919557" lon="0.586203">
        <ele>1477.7</ele>
        <time>2013-03-06T12:08:12Z</time>
      </trkpt>
      <trkpt lat="42.919560" lon="0.586035">
        <ele>1472.9</ele>
        <time>2013-03-06T12:08:29Z</time>
      </trkpt>
      <trkpt lat="42.919646" lon="0.585882">
        <ele>1468.6</ele>
        <time>2013-03-06T12:08:46Z</time>
      </trkpt>
      <trkpt lat="42.919784" lon="0.585784">
        <ele>1461.8</ele>
        <time>2013-03-06T12:09:07Z</time>
      </trkpt>
      <trkpt lat="42.919845" lon="0.585597">
        <ele>1457.0</ele>
        <time>2013-03-06T12:09:24Z</time>
      </trkpt>
      <trkpt lat="42.919864" lon="0.585442">
        <ele>1453.2</ele>
        <time>2013-03-06T12:09:38Z</time>
      </trkpt>
      <trkpt lat="42.919898" lon="0.585231">
        <ele>1449.8</ele>
        <time>2013-03-06T12:09:53Z</time>
      </trkpt>
      <trkpt lat="42.919943" lon="0.585077">
        <ele>1446.9</ele>
        <time>2013-03-06T12:10:04Z</time>
      </trkpt>
      <trkpt lat="42.919996" lon="0.584926">
        <ele>1441.6</ele>
        <time>2013-03-06T12:10:31Z</time>
      </trkpt>
      <trkpt lat="42.920131" lon="0.584808">
        <ele>1436.3</ele>
        <time>2013-03-06T12:11:07Z</time>
      </trkpt>
      <trkpt lat="42.920135" lon="0.584702">
        <ele>1428.2</ele>
        <time>2013-03-06T12:11:27Z</time>
      </trkpt>
      <trkpt lat="42.920002" lon="0.584542">
        <ele>1425.8</ele>
        <time>2013-03-06T12:13:26Z</time>
      </trkpt>
      <trkpt lat="42.919926" lon="0.584562">
        <ele>1426.7</ele>
        <time>2013-03-06T12:13:41Z</time>
      </trkpt>
      <trkpt lat="42.919842" lon="0.584525">
        <ele>1427.2</ele>
        <time>2013-03-06T12:13:57Z</time>
      </trkpt>
      <trkpt lat="42.919756" lon="0.584460">
        <ele>1427.2</ele>
        <time>2013-03-06T12:14:13Z</time>
      </trkpt>
      <trkpt lat="42.919638" lon="0.584408">
        <ele>1426.7</ele>
        <time>2013-03-06T12:15:00Z</time>
      </trkpt>
      <trkpt lat="42.919554" lon="0.584331">
        <ele>1425.3</ele>
        <time>2013-03-06T12:15:15Z</time>
      </trkpt>
      <trkpt lat="42.919381" lon="0.584361">
        <ele>1424.3</ele>
        <time>2013-03-06T12:15:33Z</time>
      </trkpt>
      <trkpt lat="42.919276" lon="0.584215">
        <ele>1420.5</ele>
        <time>2013-03-06T12:15:47Z</time>
      </trkpt>
      <trkpt lat="42.919228" lon="0.584121">
        <ele>1415.7</ele>
        <time>2013-03-06T12:15:58Z</time>
      </trkpt>
      <trkpt lat="42.919162" lon="0.584171">
        <ele>1413.8</ele>
        <time>2013-03-06T12:16:44Z</time>
      </trkpt>
      <trkpt lat="42.918983" lon="0.584232">
        <ele>1413.8</ele>
        <time>2013-03-06T12:16:58Z</time>
      </trkpt>
      <trkpt lat="42.918873" lon="0.584326">
        <ele>1414.7</ele>
        <time>2013-03-06T12:17:14Z</time>
      </trkpt>
      <trkpt lat="42.918750" lon="0.584418">
        <ele>1414.7</ele>
        <time>2013-03-06T12:17:29Z</time>
      </trkpt>
      <trkpt lat="42.918615" lon="0.584437">
        <ele>1411.8</ele>
        <time>2013-03-06T12:17:45Z</time>
      </trkpt>
      <trkpt lat="42.918485" lon="0.584364">
        <ele>1407.5</ele>
        <time>2013-03-06T12:17:57Z</time>
      </trkpt>
      <trkpt lat="42.918335" lon="0.584396">
        <ele>1405.6</ele>
        <time>2013-03-06T12:18:10Z</time>
      </trkpt>
      <trkpt lat="42.918262" lon="0.584458">
        <ele>1405.6</ele>
        <time>2013-03-06T12:18:22Z</time>
      </trkpt>
      <trkpt lat="42.918168" lon="0.584413">
        <ele>1404.6</ele>
        <time>2013-03-06T12:22:00Z</time>
      </trkpt>
      <trkpt lat="42.918090" lon="0.584285">
        <ele>1399.3</ele>
        <time>2013-03-06T12:22:18Z</time>
      </trkpt>
      <trkpt lat="42.918030" lon="0.584136">
        <ele>1393.6</ele>
        <time>2013-03-06T12:22:32Z</time>
      </trkpt>
      <trkpt lat="42.917982" lon="0.583964">
        <ele>1386.4</ele>
        <time>2013-03-06T12:22:46Z</time>
      </trkpt>
      <trkpt lat="42.917969" lon="0.583773">
        <ele>1379.6</ele>
        <time>2013-03-06T12:23:04Z</time>
      </trkpt>
      <trkpt lat="42.917958" lon="0.583605">
        <ele>1374.8</ele>
        <time>2013-03-06T12:23:19Z</time>
      </trkpt>
      <trkpt lat="42.917962" lon="0.583399">
        <ele>1367.6</ele>
        <time>2013-03-06T12:23:40Z</time>
      </trkpt>
      <trkpt lat="42.917938" lon="0.583222">
        <ele>1360.4</ele>
        <time>2013-03-06T12:24:00Z</time>
      </trkpt>
      <trkpt lat="42.917851" lon="0.583138">
        <ele>1355.1</ele>
        <time>2013-03-06T12:24:16Z</time>
      </trkpt>
      <trkpt lat="42.917870" lon="0.582969">
        <ele>1350.8</ele>
        <time>2013-03-06T12:25:10Z</time>
      </trkpt>
      <trkpt lat="42.917857" lon="0.582859">
        <ele>1349.8</ele>
        <time>2013-03-06T12:25:31Z</time>
      </trkpt>
      <trkpt lat="42.917816" lon="0.582706">
        <ele>1346.9</ele>
        <time>2013-03-06T12:25:45Z</time>
      </trkpt>
      <trkpt lat="42.917741" lon="0.582591">
        <ele>1343.6</ele>
        <time>2013-03-06T12:25:59Z</time>
      </trkpt>
      <trkpt lat="42.917671" lon="0.582504">
        <ele>1342.1</ele>
        <time>2013-03-06T12:26:13Z</time>
      </trkpt>
      <trkpt lat="42.917599" lon="0.582262">
        <ele>1338.3</ele>
        <time>2013-03-06T12:26:31Z</time>
      </trkpt>
      <trkpt lat="42.917588" lon="0.582064">
        <ele>1335.4</ele>
        <time>2013-03-06T12:26:49Z</time>
      </trkpt>
      <trkpt lat="42.917545" lon="0.581920">
        <ele>1332.0</ele>
        <time>2013-03-06T12:27:15Z</time>
      </trkpt>
      <trkpt lat="42.917384" lon="0.581830">
        <ele>1328.2</ele>
        <time>2013-03-06T12:27:27Z</time>
      </trkpt>
      <trkpt lat="42.917264" lon="0.581754">
        <ele>1325.3</ele>
        <time>2013-03-06T12:27:38Z</time>
      </trkpt>
      <trkpt lat="42.917249" lon="0.581551">
        <ele>1321.9</ele>
        <time>2013-03-06T12:27:49Z</time>
      </trkpt>
      <trkpt lat="42.917201" lon="0.581402">
        <ele>1319.1</ele>
        <time>2013-03-06T12:28:11Z</time>
      </trkpt>
      <trkpt lat="42.917246" lon="0.581313">
        <ele>1319.6</ele>
        <time>2013-03-06T12:28:29Z</time>
      </trkpt>
      <trkpt lat="42.917254" lon="0.581139">
        <ele>1312.8</ele>
        <time>2013-03-06T12:28:47Z</time>
      </trkpt>
      <trkpt lat="42.917292" lon="0.580981">
        <ele>1311.4</ele>
        <time>2013-03-06T12:29:01Z</time>
      </trkpt>
      <trkpt lat="42.917289" lon="0.580824">
        <ele>1307.5</ele>
        <time>2013-03-06T12:29:13Z</time>
      </trkpt>
      <trkpt lat="42.917322" lon="0.580665">
        <ele>1303.2</ele>
        <time>2013-03-06T12:29:27Z</time>
      </trkpt>
      <trkpt lat="42.917356" lon="0.580475">
        <ele>1298.9</ele>
        <time>2013-03-06T12:29:37Z</time>
      </trkpt>
      <trkpt lat="42.917466" lon="0.580332">
        <ele>1295.5</ele>
        <time>2013-03-06T12:29:48Z</time>
      </trkpt>
      <trkpt lat="42.917565" lon="0.580203">
        <ele>1291.7</ele>
        <time>2013-03-06T12:30:39Z</time>
      </trkpt>
      <trkpt lat="42.917565" lon="0.580074">
        <ele>1287.3</ele>
        <time>2013-03-06T12:31:14Z</time>
      </trkpt>
      <trkpt lat="42.917575" lon="0.579909">
        <ele>1283.5</ele>
        <time>2013-03-06T12:31:24Z</time>
      </trkpt>
      <trkpt lat="42.917581" lon="0.579761">
        <ele>1280.1</ele>
        <time>2013-03-06T12:31:34Z</time>
      </trkpt>
      <trkpt lat="42.917621" lon="0.579632">
        <ele>1276.3</ele>
        <time>2013-03-06T12:31:43Z</time>
      </trkpt>
      <trkpt lat="42.917666" lon="0.579518">
        <ele>1273.4</ele>
        <time>2013-03-06T12:31:53Z</time>
      </trkpt>
      <trkpt lat="42.917719" lon="0.579420">
        <ele>1271.0</ele>
        <time>2013-03-06T12:32:01Z</time>
      </trkpt>
      <trkpt lat="42.917774" lon="0.579314">
        <ele>1268.1</ele>
        <time>2013-03-06T12:32:10Z</time>
      </trkpt>
      <trkpt lat="42.917836" lon="0.579211">
        <ele>1265.2</ele>
        <time>2013-03-06T12:32:21Z</time>
      </trkpt>
      <trkpt lat="42.917902" lon="0.579113">
        <ele>1262.8</ele>
        <time>2013-03-06T12:32:30Z</time>
      </trkpt>
      <trkpt lat="42.917969" lon="0.579003">
        <ele>1259.9</ele>
        <time>2013-03-06T12:32:41Z</time>
      </trkpt>
      <trkpt lat="42.918041" lon="0.578892">
        <ele>1257.1</ele>
        <time>2013-03-06T12:32:52Z</time>
      </trkpt>
      <trkpt lat="42.918109" lon="0.578764">
        <ele>1255.1</ele>
        <time>2013-03-06T12:33:04Z</time>
      </trkpt>
      <trkpt lat="42.918180" lon="0.578664">
        <ele>1252.7</ele>
        <time>2013-03-06T12:33:14Z</time>
      </trkpt>
      <trkpt lat="42.918223" lon="0.578545">
        <ele>1248.9</ele>
        <time>2013-03-06T12:33:26Z</time>
      </trkpt>
      <trkpt lat="42.918256" lon="0.578403">
        <ele>1243.1</ele>
        <time>2013-03-06T12:33:43Z</time>
      </trkpt>
      <trkpt lat="42.918350" lon="0.578252">
        <ele>1237.8</ele>
        <time>2013-03-06T12:33:58Z</time>
      </trkpt>
      <trkpt lat="42.918390" lon="0.578133">
        <ele>1234.9</ele>
        <time>2013-03-06T12:34:58Z</time>
      </trkpt>
      <trkpt lat="42.918366" lon="0.577877">
        <ele>1232.6</ele>
        <time>2013-03-06T12:38:08Z</time>
        <name>Croisement piste</name>
      </trkpt>
      <trkpt lat="42.918555" lon="0.577891">
        <ele>1229.2</ele>
        <time>2013-03-06T12:38:22Z</time>
      </trkpt>
      <trkpt lat="42.918725" lon="0.577873">
        <ele>1225.3</ele>
        <time>2013-03-06T12:38:36Z</time>
      </trkpt>
      <trkpt lat="42.918871" lon="0.577877">
        <ele>1221.5</ele>
        <time>2013-03-06T12:38:48Z</time>
      </trkpt>
      <trkpt lat="42.919012" lon="0.577812">
        <ele>1215.2</ele>
        <time>2013-03-06T12:39:05Z</time>
      </trkpt>
      <trkpt lat="42.919164" lon="0.577711">
        <ele>1209.0</ele>
        <time>2013-03-06T12:39:24Z</time>
      </trkpt>
      <trkpt lat="42.919331" lon="0.577652">
        <ele>1203.2</ele>
        <time>2013-03-06T12:39:41Z</time>
      </trkpt>
      <trkpt lat="42.919521" lon="0.577511">
        <ele>1197.5</ele>
        <time>2013-03-06T12:40:07Z</time>
      </trkpt>
      <trkpt lat="42.919700" lon="0.577397">
        <ele>1196.0</ele>
        <time>2013-03-06T12:40:33Z</time>
      </trkpt>
      <trkpt lat="42.919875" lon="0.577278">
        <ele>1192.2</ele>
        <time>2013-03-06T12:40:59Z</time>
      </trkpt>
      <trkpt lat="42.920063" lon="0.577245">
        <ele>1191.2</ele>
        <time>2013-03-06T12:41:25Z</time>
      </trkpt>
      <trkpt lat="42.920242" lon="0.577176">
        <ele>1187.8</ele>
        <time>2013-03-06T12:41:45Z</time>
      </trkpt>
      <trkpt lat="42.920371" lon="0.577102">
        <ele>1184.5</ele>
        <time>2013-03-06T12:42:00Z</time>
      </trkpt>
      <trkpt lat="42.920452" lon="0.576974">
        <ele>1183.0</ele>
        <time>2013-03-06T12:42:13Z</time>
      </trkpt>
      <trkpt lat="42.920532" lon="0.576828">
        <ele>1180.2</ele>
        <time>2013-03-06T12:42:29Z</time>
      </trkpt>
      <trkpt lat="42.920626" lon="0.576684">
        <ele>1177.8</ele>
        <time>2013-03-06T12:42:48Z</time>
      </trkpt>
      <trkpt lat="42.920742" lon="0.576534">
        <ele>1174.9</ele>
        <time>2013-03-06T12:43:03Z</time>
      </trkpt>
      <trkpt lat="42.920833" lon="0.576400">
        <ele>1172.0</ele>
        <time>2013-03-06T12:43:18Z</time>
      </trkpt>
      <trkpt lat="42.920931" lon="0.576278">
        <ele>1170.5</ele>
        <time>2013-03-06T12:43:33Z</time>
      </trkpt>
      <trkpt lat="42.921057" lon="0.576094">
        <ele>1166.7</ele>
        <time>2013-03-06T12:43:49Z</time>
      </trkpt>
      <trkpt lat="42.921116" lon="0.575945">
        <ele>1164.8</ele>
        <time>2013-03-06T12:44:13Z</time>
      </trkpt>
      <trkpt lat="42.921241" lon="0.575848">
        <ele>1159.5</ele>
        <time>2013-03-06T12:44:28Z</time>
      </trkpt>
      <trkpt lat="42.921345" lon="0.575727">
        <ele>1155.2</ele>
        <time>2013-03-06T12:44:43Z</time>
      </trkpt>
      <trkpt lat="42.921448" lon="0.575649">
        <ele>1150.8</ele>
        <time>2013-03-06T12:44:55Z</time>
      </trkpt>
      <trkpt lat="42.921597" lon="0.575450">
        <ele>1145.1</ele>
        <time>2013-03-06T12:45:38Z</time>
      </trkpt>
      <trkpt lat="42.921660" lon="0.575389">
        <ele>1141.2</ele>
        <time>2013-03-06T12:46:03Z</time>
      </trkpt>
      <trkpt lat="42.921701" lon="0.575306">
        <ele>1142.2</ele>
        <time>2013-03-06T12:49:06Z</time>
      </trkpt>
      <trkpt lat="42.921872" lon="0.575313">
        <ele>1140.7</ele>
        <time>2013-03-06T12:51:16Z</time>
      </trkpt>
      <trkpt lat="42.921920" lon="0.575197">
        <ele>1138.3</ele>
        <time>2013-03-06T12:51:32Z</time>
      </trkpt>
      <trkpt lat="42.922086" lon="0.575146">
        <ele>1136.4</ele>
        <time>2013-03-06T12:51:52Z</time>
      </trkpt>
      <trkpt lat="42.922135" lon="0.575012">
        <ele>1133.1</ele>
        <time>2013-03-06T12:52:07Z</time>
      </trkpt>
      <trkpt lat="42.922271" lon="0.574878">
        <ele>1129.7</ele>
        <time>2013-03-06T12:52:27Z</time>
      </trkpt>
      <trkpt lat="42.922399" lon="0.574800">
        <ele>1124.9</ele>
        <time>2013-03-06T12:52:43Z</time>
      </trkpt>
      <trkpt lat="42.922448" lon="0.574639">
        <ele>1121.5</ele>
        <time>2013-03-06T12:52:59Z</time>
      </trkpt>
      <trkpt lat="42.922509" lon="0.574506">
        <ele>1119.6</ele>
        <time>2013-03-06T12:53:20Z</time>
      </trkpt>
      <trkpt lat="42.922634" lon="0.574367">
        <ele>1118.2</ele>
        <time>2013-03-06T12:53:42Z</time>
      </trkpt>
      <trkpt lat="42.922673" lon="0.574261">
        <ele>1117.7</ele>
        <time>2013-03-06T12:53:54Z</time>
      </trkpt>
      <trkpt lat="42.922666" lon="0.574060">
        <ele>1117.2</ele>
        <time>2013-03-06T12:54:22Z</time>
      </trkpt>
      <trkpt lat="42.922679" lon="0.573900">
        <ele>1113.3</ele>
        <time>2013-03-06T12:54:40Z</time>
      </trkpt>
      <trkpt lat="42.922701" lon="0.573733">
        <ele>1109.5</ele>
        <time>2013-03-06T12:54:59Z</time>
      </trkpt>
      <trkpt lat="42.922730" lon="0.573536">
        <ele>1104.2</ele>
        <time>2013-03-06T12:55:13Z</time>
      </trkpt>
      <trkpt lat="42.922804" lon="0.573339">
        <ele>1101.8</ele>
        <time>2013-03-06T12:55:24Z</time>
      </trkpt>
      <trkpt lat="42.922863" lon="0.573202">
        <ele>1098.0</ele>
        <time>2013-03-06T12:55:47Z</time>
      </trkpt>
      <trkpt lat="42.923032" lon="0.573119">
        <ele>1092.7</ele>
        <time>2013-03-06T12:56:03Z</time>
      </trkpt>
      <trkpt lat="42.923111" lon="0.573009">
        <ele>1089.3</ele>
        <time>2013-03-06T12:56:19Z</time>
      </trkpt>
      <trkpt lat="42.923327" lon="0.572988">
        <ele>1087.4</ele>
        <time>2013-03-06T12:56:59Z</time>
      </trkpt>
      <trkpt lat="42.923464" lon="0.572956">
        <ele>1085.0</ele>
        <time>2013-03-06T12:57:19Z</time>
      </trkpt>
      <trkpt lat="42.923549" lon="0.572869">
        <ele>1082.1</ele>
        <time>2013-03-06T12:57:57Z</time>
      </trkpt>
      <trkpt lat="42.923707" lon="0.573016">
        <ele>1077.8</ele>
        <time>2013-03-06T12:58:27Z</time>
      </trkpt>
      <trkpt lat="42.923798" lon="0.572935">
        <ele>1072.5</ele>
        <time>2013-03-06T12:58:46Z</time>
      </trkpt>
      <trkpt lat="42.923972" lon="0.572910">
        <ele>1067.2</ele>
        <time>2013-03-06T12:59:37Z</time>
      </trkpt>
      <trkpt lat="42.924153" lon="0.572990">
        <ele>1064.3</ele>
        <time>2013-03-06T13:00:03Z</time>
      </trkpt>
      <trkpt lat="42.924219" lon="0.572918">
        <ele>1062.4</ele>
        <time>2013-03-06T13:00:53Z</time>
      </trkpt>
      <trkpt lat="42.924363" lon="0.573015">
        <ele>1060.9</ele>
        <time>2013-03-06T13:01:08Z</time>
      </trkpt>
      <trkpt lat="42.924483" lon="0.573028">
        <ele>1060.9</ele>
        <time>2013-03-06T13:01:24Z</time>
      </trkpt>
      <trkpt lat="42.924582" lon="0.573082">
        <ele>1061.9</ele>
        <time>2013-03-06T13:01:40Z</time>
      </trkpt>
      <trkpt lat="42.924651" lon="0.573138">
        <ele>1060.9</ele>
        <time>2013-03-06T13:01:53Z</time>
      </trkpt>
      <trkpt lat="42.924739" lon="0.573152">
        <ele>1060.5</ele>
        <time>2013-03-06T13:02:07Z</time>
      </trkpt>
      <trkpt lat="42.924874" lon="0.573122">
        <ele>1059.0</ele>
        <time>2013-03-06T13:02:22Z</time>
      </trkpt>
      <trkpt lat="42.924882" lon="0.573107">
        <ele>1059.5</ele>
        <time>2013-03-06T13:05:48Z</time>
      </trkpt>
      <trkpt lat="42.925002" lon="0.573102">
        <ele>1059.0</ele>
        <time>2013-03-06T13:06:13Z</time>
      </trkpt>
      <trkpt lat="42.925108" lon="0.573146">
        <ele>1059.0</ele>
        <time>2013-03-06T13:06:24Z</time>
      </trkpt>
      <trkpt lat="42.925217" lon="0.573175">
        <ele>1057.6</ele>
        <time>2013-03-06T13:06:36Z</time>
      </trkpt>
      <trkpt lat="42.925315" lon="0.573245">
        <ele>1055.2</ele>
        <time>2013-03-06T13:06:49Z</time>
      </trkpt>
      <trkpt lat="42.925424" lon="0.573220">
        <ele>1054.7</ele>
        <time>2013-03-06T13:07:06Z</time>
      </trkpt>
      <trkpt lat="42.925572" lon="0.573239">
        <ele>1053.7</ele>
        <time>2013-03-06T13:07:22Z</time>
      </trkpt>
      <trkpt lat="42.925682" lon="0.573301">
        <ele>1052.3</ele>
        <time>2013-03-06T13:07:36Z</time>
      </trkpt>
      <trkpt lat="42.925853" lon="0.573478">
        <ele>1049.4</ele>
        <time>2013-03-06T13:08:00Z</time>
      </trkpt>
      <trkpt lat="42.925892" lon="0.573570">
        <ele>1049.4</ele>
        <time>2013-03-06T13:08:43Z</time>
      </trkpt>
      <trkpt lat="42.926005" lon="0.573624">
        <ele>1051.8</ele>
        <time>2013-03-06T13:09:06Z</time>
      </trkpt>
      <trkpt lat="42.926183" lon="0.573669">
        <ele>1052.8</ele>
        <time>2013-03-06T13:09:25Z</time>
      </trkpt>
      <trkpt lat="42.926301" lon="0.573613">
        <ele>1051.3</ele>
        <time>2013-03-06T13:09:37Z</time>
      </trkpt>
      <trkpt lat="42.926395" lon="0.573672">
        <ele>1051.8</ele>
        <time>2013-03-06T13:09:49Z</time>
      </trkpt>
      <trkpt lat="42.926489" lon="0.573672">
        <ele>1050.9</ele>
        <time>2013-03-06T13:10:01Z</time>
      </trkpt>
      <trkpt lat="42.926581" lon="0.573664">
        <ele>1049.9</ele>
        <time>2013-03-06T13:10:10Z</time>
      </trkpt>
      <trkpt lat="42.926649" lon="0.573706">
        <ele>1050.4</ele>
        <time>2013-03-06T13:11:28Z</time>
      </trkpt>
      <trkpt lat="42.926728" lon="0.573787">
        <ele>1051.3</ele>
        <time>2013-03-06T13:11:39Z</time>
      </trkpt>
      <trkpt lat="42.926799" lon="0.573873">
        <ele>1051.3</ele>
        <time>2013-03-06T13:11:49Z</time>
      </trkpt>
      <trkpt lat="42.926877" lon="0.574003">
        <ele>1052.3</ele>
        <time>2013-03-06T13:12:11Z</time>
      </trkpt>
      <trkpt lat="42.927084" lon="0.574061">
        <ele>1049.9</ele>
        <time>2013-03-06T13:12:36Z</time>
      </trkpt>
      <trkpt lat="42.927171" lon="0.574175">
        <ele>1048.0</ele>
        <time>2013-03-06T13:12:51Z</time>
      </trkpt>
      <trkpt lat="42.927274" lon="0.574263">
        <ele>1045.6</ele>
        <time>2013-03-06T13:13:08Z</time>
      </trkpt>
      <trkpt lat="42.927438" lon="0.574412">
        <ele>1044.1</ele>
        <time>2013-03-06T13:13:40Z</time>
      </trkpt>
      <trkpt lat="42.927424" lon="0.574538">
        <ele>1041.7</ele>
        <time>2013-03-06T13:13:53Z</time>
      </trkpt>
      <trkpt lat="42.927384" lon="0.574803">
        <ele>1038.4</ele>
        <time>2013-03-06T13:14:26Z</time>
      </trkpt>
      <trkpt lat="42.927538" lon="0.574924">
        <ele>1036.0</ele>
        <time>2013-03-06T13:14:57Z</time>
      </trkpt>
      <trkpt lat="42.927641" lon="0.575079">
        <ele>1036.4</ele>
        <time>2013-03-06T13:15:23Z</time>
      </trkpt>
      <trkpt lat="42.927792" lon="0.575198">
        <ele>1033.6</ele>
        <time>2013-03-06T13:15:45Z</time>
      </trkpt>
      <trkpt lat="42.927894" lon="0.575195">
        <ele>1030.2</ele>
        <time>2013-03-06T13:16:01Z</time>
      </trkpt>
      <trkpt lat="42.928001" lon="0.575150">
        <ele>1025.9</ele>
        <time>2013-03-06T13:16:15Z</time>
      </trkpt>
      <trkpt lat="42.928065" lon="0.575015">
        <ele>1020.6</ele>
        <time>2013-03-06T13:16:35Z</time>
      </trkpt>
      <trkpt lat="42.928203" lon="0.574913">
        <ele>1019.6</ele>
        <time>2013-03-06T13:16:53Z</time>
      </trkpt>
      <trkpt lat="42.928282" lon="0.574796">
        <ele>1017.2</ele>
        <time>2013-03-06T13:17:07Z</time>
      </trkpt>
      <trkpt lat="42.928350" lon="0.574654">
        <ele>1014.3</ele>
        <time>2013-03-06T13:17:26Z</time>
      </trkpt>
      <trkpt lat="42.928425" lon="0.574536">
        <ele>1011.4</ele>
        <time>2013-03-06T13:17:43Z</time>
      </trkpt>
      <trkpt lat="42.928502" lon="0.574432">
        <ele>1008.1</ele>
        <time>2013-03-06T13:17:58Z</time>
      </trkpt>
      <trkpt lat="42.928610" lon="0.574412">
        <ele>1004.7</ele>
        <time>2013-03-06T13:19:04Z</time>
      </trkpt>
      <trkpt lat="42.928714" lon="0.574409">
        <ele>1002.3</ele>
        <time>2013-03-06T13:19:17Z</time>
      </trkpt>
      <trkpt lat="42.928785" lon="0.574324">
        <ele>998.5</ele>
        <time>2013-03-06T13:19:28Z</time>
      </trkpt>
      <trkpt lat="42.928862" lon="0.574234">
        <ele>994.6</ele>
        <time>2013-03-06T13:19:41Z</time>
      </trkpt>
      <trkpt lat="42.928945" lon="0.574189">
        <ele>992.2</ele>
        <time>2013-03-06T13:19:51Z</time>
      </trkpt>
      <trkpt lat="42.929036" lon="0.574129">
        <ele>987.9</ele>
        <time>2013-03-06T13:20:02Z</time>
      </trkpt>
      <trkpt lat="42.929111" lon="0.574050">
        <ele>984.5</ele>
        <time>2013-03-06T13:20:15Z</time>
      </trkpt>
      <trkpt lat="42.929223" lon="0.573976">
        <ele>981.2</ele>
        <time>2013-03-06T13:20:35Z</time>
      </trkpt>
      <trkpt lat="42.929339" lon="0.573899">
        <ele>976.8</ele>
        <time>2013-03-06T13:20:51Z</time>
      </trkpt>
      <trkpt lat="42.929437" lon="0.573810">
        <ele>973.5</ele>
        <time>2013-03-06T13:21:05Z</time>
      </trkpt>
      <trkpt lat="42.929545" lon="0.573730">
        <ele>969.6</ele>
        <time>2013-03-06T13:21:19Z</time>
      </trkpt>
      <trkpt lat="42.929669" lon="0.573614">
        <ele>965.8</ele>
        <time>2013-03-06T13:21:32Z</time>
      </trkpt>
      <trkpt lat="42.929701" lon="0.573544">
        <ele>962.9</ele>
        <time>2013-03-06T13:21:59Z</time>
      </trkpt>
      <trkpt lat="42.929774" lon="0.573536">
        <ele>961.9</ele>
        <time>2013-03-06T13:22:39Z</time>
      </trkpt>
      <trkpt lat="42.929891" lon="0.573598">
        <ele>958.1</ele>
        <time>2013-03-06T13:22:55Z</time>
      </trkpt>
      <trkpt lat="42.930014" lon="0.573618">
        <ele>954.2</ele>
        <time>2013-03-06T13:23:12Z</time>
      </trkpt>
      <trkpt lat="42.930148" lon="0.573620">
        <ele>950.9</ele>
        <time>2013-03-06T13:23:28Z</time>
      </trkpt>
      <trkpt lat="42.930260" lon="0.573616">
        <ele>949.0</ele>
        <time>2013-03-06T13:23:39Z</time>
      </trkpt>
      <trkpt lat="42.930370" lon="0.573610">
        <ele>948.5</ele>
        <time>2013-03-06T13:23:50Z</time>
      </trkpt>
      <trkpt lat="42.930500" lon="0.573648">
        <ele>946.6</ele>
        <time>2013-03-06T13:25:24Z</time>
      </trkpt>
      <trkpt lat="42.930631" lon="0.573654">
        <ele>944.6</ele>
        <time>2013-03-06T13:25:35Z</time>
      </trkpt>
      <trkpt lat="42.930726" lon="0.573686">
        <ele>942.2</ele>
        <time>2013-03-06T13:25:46Z</time>
      </trkpt>
      <trkpt lat="42.930843" lon="0.573745">
        <ele>938.4</ele>
        <time>2013-03-06T13:25:58Z</time>
      </trkpt>
      <trkpt lat="42.930956" lon="0.573815">
        <ele>934.1</ele>
        <time>2013-03-06T13:26:08Z</time>
      </trkpt>
      <trkpt lat="42.931061" lon="0.573858">
        <ele>931.7</ele>
        <time>2013-03-06T13:26:17Z</time>
      </trkpt>
      <trkpt lat="42.931163" lon="0.573937">
        <ele>928.8</ele>
        <time>2013-03-06T13:26:31Z</time>
      </trkpt>
      <trkpt lat="42.931270" lon="0.573998">
        <ele>925.9</ele>
        <time>2013-03-06T13:26:41Z</time>
      </trkpt>
      <trkpt lat="42.931376" lon="0.574098">
        <ele>924.5</ele>
        <time>2013-03-06T13:26:52Z</time>
      </trkpt>
      <trkpt lat="42.931509" lon="0.574191">
        <ele>922.0</ele>
        <time>2013-03-06T13:27:04Z</time>
      </trkpt>
      <trkpt lat="42.931622" lon="0.574223">
        <ele>920.6</ele>
        <time>2013-03-06T13:27:19Z</time>
      </trkpt>
      <trkpt lat="42.931776" lon="0.574154">
        <ele>919.2</ele>
        <time>2013-03-06T13:27:44Z</time>
      </trkpt>
      <trkpt lat="42.931909" lon="0.574023">
        <ele>918.2</ele>
        <time>2013-03-06T13:28:13Z</time>
      </trkpt>
      <trkpt lat="42.931999" lon="0.573877">
        <ele>919.6</ele>
        <time>2013-03-06T13:28:29Z</time>
      </trkpt>
      <trkpt lat="42.932124" lon="0.573843">
        <ele>920.1</ele>
        <time>2013-03-06T13:28:44Z</time>
      </trkpt>
      <trkpt lat="42.932216" lon="0.573780">
        <ele>920.1</ele>
        <time>2013-03-06T13:29:01Z</time>
      </trkpt>
      <trkpt lat="42.932349" lon="0.573739">
        <ele>920.1</ele>
        <time>2013-03-06T13:29:22Z</time>
      </trkpt>
      <trkpt lat="42.932504" lon="0.573663">
        <ele>919.2</ele>
        <time>2013-03-06T13:29:36Z</time>
      </trkpt>
      <trkpt lat="42.932637" lon="0.573650">
        <ele>919.6</ele>
        <time>2013-03-06T13:29:58Z</time>
      </trkpt>
      <trkpt lat="42.932741" lon="0.573622">
        <ele>919.6</ele>
        <time>2013-03-06T13:30:13Z</time>
      </trkpt>
      <trkpt lat="42.932895" lon="0.573629">
        <ele>915.8</ele>
        <time>2013-03-06T13:30:33Z</time>
      </trkpt>
      <trkpt lat="42.933036" lon="0.573642">
        <ele>912.4</ele>
        <time>2013-03-06T13:30:48Z</time>
      </trkpt>
      <trkpt lat="42.933185" lon="0.573704">
        <ele>908.6</ele>
        <time>2013-03-06T13:31:04Z</time>
      </trkpt>
      <trkpt lat="42.933307" lon="0.573752">
        <ele>906.2</ele>
        <time>2013-03-06T13:31:17Z</time>
      </trkpt>
      <trkpt lat="42.933460" lon="0.573776">
        <ele>901.8</ele>
        <time>2013-03-06T13:31:36Z</time>
      </trkpt>
      <trkpt lat="42.933617" lon="0.573792">
        <ele>896.1</ele>
        <time>2013-03-06T13:31:56Z</time>
      </trkpt>
      <trkpt lat="42.933784" lon="0.573997">
        <ele>890.3</ele>
        <time>2013-03-06T13:32:16Z</time>
      </trkpt>
      <trkpt lat="42.933869" lon="0.573967">
        <ele>886.5</ele>
        <time>2013-03-06T13:32:32Z</time>
      </trkpt>
      <trkpt lat="42.933978" lon="0.573779">
        <ele>881.7</ele>
        <time>2013-03-06T13:32:55Z</time>
      </trkpt>
      <trkpt lat="42.934070" lon="0.573582">
        <ele>877.3</ele>
        <time>2013-03-06T13:33:16Z</time>
      </trkpt>
      <trkpt lat="42.934086" lon="0.573342">
        <ele>872.0</ele>
        <time>2013-03-06T13:33:39Z</time>
      </trkpt>
      <trkpt lat="42.934155" lon="0.573066">
        <ele>867.2</ele>
        <time>2013-03-06T13:34:03Z</time>
      </trkpt>
      <trkpt lat="42.934322" lon="0.572999">
        <ele>863.9</ele>
        <time>2013-03-06T13:34:29Z</time>
      </trkpt>
      <trkpt lat="42.934444" lon="0.573025">
        <ele>858.1</ele>
        <time>2013-03-06T13:34:51Z</time>
      </trkpt>
      <trkpt lat="42.934559" lon="0.572932">
        <ele>854.3</ele>
        <time>2013-03-06T13:35:06Z</time>
      </trkpt>
      <trkpt lat="42.934621" lon="0.572786">
        <ele>850.4</ele>
        <time>2013-03-06T13:35:20Z</time>
      </trkpt>
      <trkpt lat="42.934712" lon="0.572716">
        <ele>846.6</ele>
        <time>2013-03-06T13:35:34Z</time>
      </trkpt>
      <trkpt lat="42.934858" lon="0.572788">
        <ele>843.2</ele>
        <time>2013-03-06T13:35:48Z</time>
      </trkpt>
      <trkpt lat="42.934934" lon="0.572677">
        <ele>840.3</ele>
        <time>2013-03-06T13:36:03Z</time>
      </trkpt>
      <trkpt lat="42.934994" lon="0.572627">
        <ele>837.9</ele>
        <time>2013-03-06T13:37:55Z</time>
      </trkpt>
      <trkpt lat="42.934980" lon="0.572476">
        <ele>834.1</ele>
        <time>2013-03-06T13:38:12Z</time>
      </trkpt>
      <trkpt lat="42.935050" lon="0.572374">
        <ele>829.8</ele>
        <time>2013-03-06T13:38:23Z</time>
      </trkpt>
      <trkpt lat="42.935166" lon="0.572344">
        <ele>823.0</ele>
        <time>2013-03-06T13:38:41Z</time>
      </trkpt>
      <trkpt lat="42.935296" lon="0.572298">
        <ele>818.7</ele>
        <time>2013-03-06T13:38:53Z</time>
      </trkpt>
      <trkpt lat="42.935380" lon="0.572181">
        <ele>815.8</ele>
        <time>2013-03-06T13:39:02Z</time>
      </trkpt>
      <trkpt lat="42.935486" lon="0.572080">
        <ele>810.5</ele>
        <time>2013-03-06T13:39:17Z</time>
      </trkpt>
      <trkpt lat="42.935610" lon="0.572094">
        <ele>806.7</ele>
        <time>2013-03-06T13:39:30Z</time>
      </trkpt>
      <trkpt lat="42.935711" lon="0.572174">
        <ele>801.9</ele>
        <time>2013-03-06T13:39:41Z</time>
      </trkpt>
      <trkpt lat="42.935850" lon="0.572225">
        <ele>798.0</ele>
        <time>2013-03-06T13:39:56Z</time>
      </trkpt>
      <trkpt lat="42.936011" lon="0.572224">
        <ele>794.7</ele>
        <time>2013-03-06T13:40:11Z</time>
      </trkpt>
      <trkpt lat="42.936191" lon="0.572229">
        <ele>792.3</ele>
        <time>2013-03-06T13:40:26Z</time>
      </trkpt>
      <trkpt lat="42.936291" lon="0.572266">
        <ele>790.3</ele>
        <time>2013-03-06T13:40:48Z</time>
      </trkpt>
      <trkpt lat="42.936306" lon="0.572302">
        <ele>790.8</ele>
        <time>2013-03-06T13:41:24Z</time>
      </trkpt>
      <trkpt lat="42.936398" lon="0.572194">
        <ele>789.9</ele>
        <time>2013-03-06T13:41:41Z</time>
      </trkpt>
      <trkpt lat="42.936516" lon="0.572192">
        <ele>787.5</ele>
        <time>2013-03-06T13:41:53Z</time>
      </trkpt>
      <trkpt lat="42.936623" lon="0.572165">
        <ele>787.0</ele>
        <time>2013-03-06T13:42:02Z</time>
      </trkpt>
      <trkpt lat="42.936723" lon="0.572049">
        <ele>786.5</ele>
        <time>2013-03-06T13:42:13Z</time>
      </trkpt>
      <trkpt lat="42.936827" lon="0.571988">
        <ele>787.0</ele>
        <time>2013-03-06T13:42:23Z</time>
      </trkpt>
      <trkpt lat="42.936924" lon="0.571940">
        <ele>787.9</ele>
        <time>2013-03-06T13:42:33Z</time>
      </trkpt>
      <trkpt lat="42.937027" lon="0.571909">
        <ele>788.4</ele>
        <time>2013-03-06T13:42:42Z</time>
      </trkpt>
      <trkpt lat="42.937132" lon="0.571890">
        <ele>789.4</ele>
        <time>2013-03-06T13:42:52Z</time>
      </trkpt>
      <trkpt lat="42.937234" lon="0.571845">
        <ele>790.8</ele>
        <time>2013-03-06T13:43:03Z</time>
      </trkpt>
      <trkpt lat="42.937341" lon="0.571799">
        <ele>791.3</ele>
        <time>2013-03-06T13:43:13Z</time>
      </trkpt>
      <trkpt lat="42.937442" lon="0.571749">
        <ele>792.3</ele>
        <time>2013-03-06T13:43:23Z</time>
      </trkpt>
      <trkpt lat="42.937542" lon="0.571702">
        <ele>793.2</ele>
        <time>2013-03-06T13:43:33Z</time>
      </trkpt>
      <trkpt lat="42.937642" lon="0.571649">
        <ele>793.2</ele>
        <time>2013-03-06T13:43:42Z</time>
      </trkpt>
      <trkpt lat="42.937746" lon="0.571595">
        <ele>793.2</ele>
        <time>2013-03-06T13:43:52Z</time>
      </trkpt>
      <trkpt lat="42.937848" lon="0.571533">
        <ele>794.2</ele>
        <time>2013-03-06T13:44:02Z</time>
      </trkpt>
      <trkpt lat="42.937933" lon="0.571452">
        <ele>793.7</ele>
        <time>2013-03-06T13:44:11Z</time>
      </trkpt>
      <trkpt lat="42.938019" lon="0.571373">
        <ele>794.2</ele>
        <time>2013-03-06T13:44:20Z</time>
      </trkpt>
      <trkpt lat="42.938106" lon="0.571280">
        <ele>793.7</ele>
        <time>2013-03-06T13:44:29Z</time>
      </trkpt>
      <trkpt lat="42.938188" lon="0.571201">
        <ele>794.2</ele>
        <time>2013-03-06T13:44:38Z</time>
      </trkpt>
      <trkpt lat="42.938301" lon="0.571198">
        <ele>796.1</ele>
        <time>2013-03-06T13:44:48Z</time>
      </trkpt>
      <trkpt lat="42.938406" lon="0.571230">
        <ele>797.1</ele>
        <time>2013-03-06T13:44:57Z</time>
      </trkpt>
      <trkpt lat="42.938508" lon="0.571259">
        <ele>798.5</ele>
        <time>2013-03-06T13:45:06Z</time>
      </trkpt>
      <trkpt lat="42.938607" lon="0.571259">
        <ele>799.5</ele>
        <time>2013-03-06T13:45:15Z</time>
      </trkpt>
      <trkpt lat="42.938705" lon="0.571230">
        <ele>800.9</ele>
        <time>2013-03-06T13:45:24Z</time>
      </trkpt>
      <trkpt lat="42.938796" lon="0.571184">
        <ele>801.9</ele>
        <time>2013-03-06T13:45:33Z</time>
      </trkpt>
      <trkpt lat="42.938887" lon="0.571144">
        <ele>802.4</ele>
        <time>2013-03-06T13:45:42Z</time>
      </trkpt>
      <trkpt lat="42.938987" lon="0.571107">
        <ele>803.3</ele>
        <time>2013-03-06T13:45:53Z</time>
      </trkpt>
      <trkpt lat="42.939069" lon="0.571210">
        <ele>804.3</ele>
        <time>2013-03-06T13:46:04Z</time>
      </trkpt>
      <trkpt lat="42.939149" lon="0.571302">
        <ele>804.3</ele>
        <time>2013-03-06T13:46:15Z</time>
      </trkpt>
    </trkseg>
  </trk>
</gpx>

